M I D A S
Marine Information and Data Acquisition System
Tripno 901 of the Zeeleeuw from 2005-05-17 07:33:26 to 2005-05-17 10:59:46
Back to CruiseResearch ActivitiesStationsMapUnderway DataData graphs

EquipmentUnitsComment
TimeDGPSUTC
LatitudeDGPSDM.mWGS84
LongitudeDGPSDM.mWGS84
TemperatureSBE03/SBE38deg celciusITS90
ConductivitySBE21S/mITS90
SalinitySBE21 Practical Salinity Units
ChlorophylAChelsea fluorimeterg/lCalibrated in Aceton
Missing or incorrect values are displayed as -999
Sea surface data collected by the RV Zeeleeuw from 2005-05-17 07:28:40 to 2005-05-17 11:10:10
                                                                                    Next 1000 lines
Time Latitude Longitude Temperature Conductivity Salinity ChlorophylA
2005-05-17 07:28:50 51°13.596 2°56.098 18.2695 0.071788 0.413691 -0.545283
2005-05-17 07:28:54 51°13.596 2°56.096 18.3171 0.071788 0.413684 -0.545283
2005-05-17 07:29:00 51°13.597 2°56.092 18.3291 0.071788 0.413698 -0.511574
2005-05-17 07:29:04 51°13.598 2°56.089 18.3223 0.071788 0.413698 -0.545283
2005-05-17 07:29:10 51°13.6 2°56.083 18.3688 0.071788 0.413698 -0.511574
2005-05-17 07:29:15 51°13.602 2°56.078 18.3454 0.071788 0.413698 -0.511574
2005-05-17 07:29:20 51°13.603 2°56.073 18.3958 0.071788 0.413705 -0.545283
2005-05-17 07:29:26 51°13.605 2°56.067 18.3559 0.071788 0.413712 -0.545283
2005-05-17 07:29:30 51°13.608 2°56.061 18.3394 0.071788 0.413712 -0.545283
2005-05-17 07:29:35 51°13.609 2°56.056 18.3507 0.071788 0.413712 -0.511574
2005-05-17 07:29:40 51°13.612 2°56.049 18.3676 0.071788 0.41372 -0.545283
2005-05-17 07:29:45 51°13.614 2°56.042 18.3506 0.071788 0.41372 -0.545283
2005-05-17 07:29:50 51°13.617 2°56.034 18.3905 0.071788 0.413727 -0.511574
2005-05-17 07:29:55 51°13.62 2°56.027 18.3617 0.071788 0.413734 -0.511574
2005-05-17 07:30:00 51°13.622 2°56.019 18.3728 0.071788 0.413734 -0.545283
2005-05-17 07:30:06 51°13.625 2°56.01 18.3678 0.071788 0.413741 -0.511574
2005-05-17 07:30:10 51°13.627 2°56.002 18.3737 0.071788 0.413741 -0.545283
2005-05-17 07:30:15 51°13.63 2°55.993 18.3774 0.071788 0.413741 -0.545283
2005-05-17 07:30:20 51°13.633 2°55.985 18.3736 0.071788 0.413748 -0.545283
2005-05-17 07:30:26 51°13.636 2°55.975 18.373 0.071788 0.413748 -0.545283
2005-05-17 07:30:30 51°13.638 2°55.967 18.4185 0.071788 0.413755 -0.511574
2005-05-17 07:30:35 51°13.641 2°55.958 18.3898 0.071788 0.413762 -0.545283
2005-05-17 07:30:40 51°13.644 2°55.949 18.4021 0.071788 0.413762 -0.511574
2005-05-17 07:30:46 51°13.647 2°55.938 18.4183 0.071788 0.413762 -0.511574
2005-05-17 07:30:50 51°13.65 2°55.93 18.4325 0.071788 0.41377 -0.545283
2005-05-17 07:30:55 51°13.653 2°55.921 18.4213 0.071788 0.41377 -0.511574
2005-05-17 07:31:00 51°13.656 2°55.913 18.4101 0.071788 0.413784 -0.511574
2005-05-17 07:31:05 51°13.659 2°55.904 18.4065 0.071788 0.413777 -0.545283
2005-05-17 07:31:10 51°13.662 2°55.894 18.4188 0.071788 0.413784 -0.511574
2005-05-17 07:31:15 51°13.666 2°55.886 18.4139 0.071788 0.413784 -0.511574
2005-05-17 07:31:20 51°13.669 2°55.878 18.4031 0.071788 0.413784 -0.511574
2005-05-17 07:31:25 51°13.672 2°55.869 18.4019 0.071788 0.413784 -0.511574
2005-05-17 07:31:30 51°13.676 2°55.86 18.4064 0.071788 0.413791 -0.545283
2005-05-17 07:31:35 51°13.679 2°55.852 18.4037 0.071788 0.413798 -0.545283
2005-05-17 07:31:40 51°13.683 2°55.845 18.4023 0.071788 0.413798 -0.545283
2005-05-17 07:31:45 51°13.687 2°55.836 18.4001 0.071788 0.413798 -0.545283
2005-05-17 07:31:50 51°13.691 2°55.828 18.3894 0.071788 0.413798 -0.545283
2005-05-17 07:31:55 51°13.694 2°55.82 18.3683 0.071788 0.413805 -0.545283
2005-05-17 07:32:00 51°13.698 2°55.812 18.3625 0.071788 0.413805 -0.511574
2005-05-17 07:32:05 51°13.703 2°55.803 18.3721 0.071788 0.41382 -0.545283
2005-05-17 07:32:10 51°13.707 2°55.795 18.3814 0.071788 0.413827 -0.511574
2005-05-17 07:32:14 51°13.711 2°55.788 18.3811 0.071788 0.413827 -0.511574
2005-05-17 07:32:20 51°13.716 2°55.779 18.385 0.071788 0.413834 -0.545283
2005-05-17 07:32:25 51°13.721 2°55.771 18.3811 0.071788 0.413841 -0.511574
2005-05-17 07:32:30 51°13.726 2°55.763 18.382 0.071788 0.413848 -0.545283
2005-05-17 07:32:35 51°13.731 2°55.755 18.3881 0.071788 0.413848 -0.511574
2005-05-17 07:32:40 51°13.735 2°55.747 18.3818 0.071788 0.413848 -0.545283
2005-05-17 07:32:45 51°13.741 2°55.74 18.3829 0.071788 0.413848 -0.545283
2005-05-17 07:32:50 51°13.746 2°55.732 18.374 0.071788 0.413855 -0.545283
2005-05-17 07:32:55 51°13.751 2°55.726 18.3813 0.071788 0.413855 -0.511574
2005-05-17 07:33:00 51°13.756 2°55.719 18.4251 0.071788 0.413848 -0.545283
2005-05-17 07:33:05 51°13.762 2°55.713 18.4059 0.071788 0.413855 -0.545283
2005-05-17 07:33:10 51°13.768 2°55.706 18.3915 0.071788 0.41387 -0.511574
2005-05-17 07:33:15 51°13.774 2°55.7 18.3947 0.071788 0.41387 -0.511574
2005-05-17 07:33:20 51°13.779 2°55.693 18.3842 0.071788 0.41387 -0.511574
2005-05-17 07:33:25 51°13.785 2°55.688 18.3738 0.071788 0.413877 -0.545283
2005-05-17 07:33:30 51°13.791 2°55.681 18.4032 0.071788 0.413884 -0.511574
2005-05-17 07:33:35 51°13.797 2°55.676 18.4348 0.071788 0.413891 -0.545283
2005-05-17 07:33:40 51°13.802 2°55.671 18.4201 0.071788 0.413891 -0.545283
2005-05-17 07:33:45 51°13.809 2°55.666 18.455 0.071788 0.413891 -0.545283
2005-05-17 07:33:50 51°13.815 2°55.662 18.443 0.071788 0.413898 -0.545283
2005-05-17 07:33:55 51°13.82 2°55.657 18.4101 0.071788 0.413898 -0.545283
2005-05-17 07:34:00 51°13.826 2°55.654 18.4107 0.071788 0.413898 -0.511574
2005-05-17 07:34:05 51°13.832 2°55.65 18.407 0.071788 0.413906 -0.545283
2005-05-17 07:34:10 51°13.838 2°55.648 18.409 0.071788 0.41392 -0.511574
2005-05-17 07:34:15 51°13.844 2°55.646 18.4133 0.071788 0.41392 -0.511574
2005-05-17 07:34:20 51°13.85 2°55.644 18.4146 0.071788 0.41392 -0.545283
2005-05-17 07:34:25 51°13.856 2°55.643 18.4008 0.071788 0.41392 -0.511574
2005-05-17 07:34:30 51°13.862 2°55.642 18.419 0.071788 0.413927 -0.545283
2005-05-17 07:34:35 51°13.868 2°55.642 17.2234 0.071788 0.413927 -0.511574
2005-05-17 07:34:40 51°13.874 2°55.642 14.6647 0.07158 0.413387 -0.545283
2005-05-17 07:34:46 51°13.881 2°55.642 13.9124 0.07158 0.413387 -0.545283
2005-05-17 07:34:50 51°13.886 2°55.643 13.3293 0.102769 0.602004 -0.545283
2005-05-17 07:34:54 51°13.891 2°55.644 13.1109 0.094451 0.551981 -0.073352
2005-05-17 07:35:00 51°13.897 2°55.646 12.9691 1.102194 7.265738 14.286853
2005-05-17 07:35:05 51°13.903 2°55.648 12.85 2.002986 13.850983 9.028187
2005-05-17 07:35:10 51°13.909 2°55.65 12.7624 2.569486 18.862507 7.71352
2005-05-17 07:35:15 51°13.913 2°55.653 12.7068 2.569486 18.862507 7.71352
2005-05-17 07:35:20 51°13.918 2°55.656 12.6625 2.819028 21.437358 10.814785
2005-05-17 07:35:25 51°13.922 2°55.658 12.6173 2.883019 22.549478 13.174443
2005-05-17 07:35:31 51°13.927 2°55.661 12.615 3.012381 24.066769 13.747503
2005-05-17 07:35:34 51°13.929 2°55.662 12.6025 3.149668 25.595015 14.050888
2005-05-17 07:35:40 51°13.931 2°55.664 12.6047 3.172415 25.998292 14.758785
2005-05-17 07:35:44 51°13.932 2°55.664 12.5842 3.172415 25.998292 14.758785
2005-05-17 07:35:50 51°13.932 2°55.662 12.5505 3.171364 26.123971 14.657657
2005-05-17 07:35:54 51°13.931 2°55.66 12.5517 3.190213 26.374441 14.084597
2005-05-17 07:36:00 51°13.931 2°55.658 12.5704 3.14778 26.057816 13.814922
2005-05-17 07:36:04 51°13.93 2°55.651 12.6273 3.167997 26.282041 13.612665
2005-05-17 07:36:10 51°13.929 2°55.643 12.8593 3.161469 26.264213 13.949759
2005-05-17 07:36:14 51°13.93 2°55.637 12.6487 3.161469 26.264213 13.949759
2005-05-17 07:36:20 51°13.931 2°55.627 12.7174 3.1581 26.2554 13.646375
2005-05-17 07:36:24 51°13.932 2°55.62 12.6284 3.149362 26.199923 13.444118
2005-05-17 07:36:30 51°13.936 2°55.609 12.5261 3.145571 26.17856 13.511537
2005-05-17 07:36:35 51°13.94 2°55.599 12.5056 3.149467 26.221399 13.073315
2005-05-17 07:36:40 51°13.944 2°55.589 12.4945 3.139254 26.104899 13.107024
2005-05-17 07:36:45 51°13.95 2°55.579 12.5228 3.139254 26.104899 13.107024
2005-05-17 07:36:50 51°13.956 2°55.57 12.5048 3.100087 25.702617 12.972187
2005-05-17 07:36:54 51°13.962 2°55.561 12.5279 3.058291 25.31622 13.073315
2005-05-17 07:37:00 51°13.97 2°55.55 12.5048 3.047764 25.238207 13.208153
2005-05-17 07:37:05 51°13.977 2°55.54 12.5112 3.052607 25.315755 12.938477
2005-05-17 07:37:10 51°13.986 2°55.53 12.502 3.079137 25.596624 12.972187
2005-05-17 07:37:14 51°13.993 2°55.521 12.4962 3.079137 25.596624 12.972187
2005-05-17 07:37:20 51°14.003 2°55.51 12.497 3.063872 25.478653 12.668802
2005-05-17 07:37:24 51°14.01 2°55.501 12.4928 3.029554 25.172226 12.500255
2005-05-17 07:37:30 51°14.023 2°55.488 12.4762 2.998816 24.895791 12.466546
2005-05-17 07:37:35 51°14.032 2°55.479 12.4771 3.016606 25.066503 12.533965
2005-05-17 07:37:40 51°14.042 2°55.47 12.459 3.003658 24.950947 12.365418
2005-05-17 07:37:44 51°14.051 2°55.463 12.456 3.003658 24.950947 12.365418
2005-05-17 07:37:50 51°14.064 2°55.451 12.4541 3.014817 25.055274 12.668802
2005-05-17 07:37:54 51°14.073 2°55.443 12.4566 3.023133 25.137238 12.365418
2005-05-17 07:38:00 51°14.086 2°55.434 12.436 3.030291 25.209163 12.904768
2005-05-17 07:38:04 51°14.097 2°55.427 12.4309 3.038923 25.294681 12.500255
2005-05-17 07:38:10 51°14.111 2°55.418 12.4291 3.051872 25.418893 12.736221
2005-05-17 07:38:14 51°14.12 2°55.411 12.4166 3.051872 25.418893 12.736221
2005-05-17 07:38:20 51°14.133 2°55.403 12.4075 3.066821 25.565861 13.208153
2005-05-17 07:38:25 51°14.145 2°55.394 12.3965 3.077454 25.667439 13.208153
2005-05-17 07:38:30 51°14.157 2°55.386 12.3847 3.086192 25.75217 13.140734
2005-05-17 07:38:34 51°14.168 2°55.377 12.3746 3.097457 25.86186 13.275571
2005-05-17 07:38:40 51°14.182 2°55.365 12.3618 3.100827 25.900966 13.612665
2005-05-17 07:38:44 51°14.19 2°55.358 12.3517 3.100827 25.900966 13.612665
2005-05-17 07:38:50 51°14.204 2°55.344 12.3407 3.114829 26.038248 13.882341
2005-05-17 07:38:54 51°14.214 2°55.334 12.3325 3.118725 26.081781 13.680084
2005-05-17 07:39:00 51°14.227 2°55.32 12.3337 3.121568 26.115618 14.118306
2005-05-17 07:39:04 51°14.236 2°55.31 12.3302 3.120199 26.112719 13.848631
2005-05-17 07:39:10 51°14.25 2°55.293 12.3304 3.139256 26.298214 13.612665
2005-05-17 07:39:14 51°14.259 2°55.281 12.3375 3.139256 26.298214 13.612665
2005-05-17 07:39:20 51°14.271 2°55.265 12.3493 3.145785 26.368486 13.747503
2005-05-17 07:39:24 51°14.278 2°55.251 12.3347 3.153155 26.447185 13.680084
2005-05-17 07:39:30 51°14.29 2°55.23 12.3428 3.148207 26.409011 13.680084
2005-05-17 07:39:34 51°14.298 2°55.213 12.338 3.158841 26.513103 13.747503
2005-05-17 07:39:40 51°14.308 2°55.192 12.3294 3.159789 26.5252 13.34299
2005-05-17 07:39:45 51°14.317 2°55.172 12.3242 3.159789 26.5252 13.34299
2005-05-17 07:39:50 51°14.327 2°55.15 12.3257 3.157367 26.506044 13.511537
2005-05-17 07:39:54 51°14.334 2°55.133 12.3272 3.162105 26.547792 12.938477
2005-05-17 07:40:00 51°14.343 2°55.111 12.3248 3.166949 26.592178 12.76993
2005-05-17 07:40:04 51°14.351 2°55.094 12.3199 3.172108 26.641719 12.601383
2005-05-17 07:40:10 51°14.36 2°55.068 12.3225 3.17811 26.699654 12.500255
2005-05-17 07:40:15 51°14.368 2°55.046 12.3108 3.17811 26.699654 12.500255
2005-05-17 07:40:20 51°14.375 2°55.023 12.3104 3.187376 26.788493 12.331708
2005-05-17 07:40:24 51°14.381 2°55.004 12.3029 3.200749 26.916681 12.163161
2005-05-17 07:40:30 51°14.389 2°54.976 12.2973 3.210121 27.006634 12.129452
2005-05-17 07:40:35 51°14.396 2°54.953 12.2996 3.222021 27.118473 12.23058
2005-05-17 07:40:40 51°14.402 2°54.927 12.2884 3.233815 27.229967 12.264289
2005-05-17 07:40:45 51°14.409 2°54.902 12.2838 3.233815 27.229967 12.264289
2005-05-17 07:40:50 51°14.415 2°54.877 12.2955 3.250559 27.387659 12.668802
2005-05-17 07:40:54 51°14.42 2°54.853 12.2628 3.263301 27.512176 12.837349
2005-05-17 07:41:00 51°14.426 2°54.825 12.2501 3.268146 27.560807 12.635093
2005-05-17 07:41:05 51°14.431 2°54.8 12.2498 3.269515 27.575303 12.500255
2005-05-17 07:41:10 51°14.436 2°54.773 12.2481 3.280994 27.688789 12.668802
2005-05-17 07:41:14 51°14.439 2°54.749 12.2208 3.280994 27.688789 12.668802
2005-05-17 07:41:20 51°14.441 2°54.72 12.211 3.288261 27.762441 12.702512
2005-05-17 07:41:24 51°14.443 2°54.699 12.1795 3.298476 27.861393 12.76993
2005-05-17 07:41:30 51°14.445 2°54.667 12.1712 3.305849 27.933817 12.904768
2005-05-17 07:41:34 51°14.446 2°54.643 12.1682 3.320172 28.076017 13.34299
2005-05-17 07:41:40 51°14.447 2°54.613 12.166 3.328177 28.159183 13.3767
2005-05-17 07:41:45 51°14.447 2°54.587 12.1641 3.328177 28.159183 13.3767
2005-05-17 07:41:50 51°14.448 2°54.557 12.1517 3.350822 28.377925 12.76993
2005-05-17 07:41:55 51°14.447 2°54.534 12.1508 3.378207 28.648078 13.174443
2005-05-17 07:41:58 51°14.446 2°54.518 12.1373 3.396219 28.828796 12.163161
2005-05-17 07:42:04 51°14.443 2°54.486 12.1355 3.426661 29.131752 12.466546
2005-05-17 07:42:10 51°14.439 2°54.452 12.1297 3.443727 29.305494 12.095742
2005-05-17 07:42:14 51°14.437 2°54.431 12.1235 3.443727 29.305494 12.095742
2005-05-17 07:42:20 51°14.431 2°54.403 12.1193 3.46016 29.469844 11.590101
2005-05-17 07:42:24 51°14.428 2°54.382 12.1099 3.468166 29.552894 11.792358
2005-05-17 07:42:30 51°14.42 2°54.349 12.1131 3.474066 29.615472 11.488973
2005-05-17 07:42:34 51°14.416 2°54.329 12.1021 3.487656 29.750853 11.354136
2005-05-17 07:42:38 51°14.411 2°54.309 12.1064 3.483336 29.715587 11.556392
2005-05-17 07:42:44 51°14.405 2°54.277 12.0924 3.483336 29.715587 11.556392
2005-05-17 07:42:50 51°14.397 2°54.246 12.0952 3.493871 29.822171 11.253007
2005-05-17 07:42:54 51°14.392 2°54.225 12.0962 3.504301 29.924717 10.949623
2005-05-17 07:43:00 51°14.386 2°54.197 12.0772 3.51157 29.998004 11.151879
2005-05-17 07:43:05 51°14.379 2°54.171 12.0928 3.50251 29.917783 11.11817
2005-05-17 07:43:10 51°14.374 2°54.144 12.0826 3.517997 30.069017 10.983332
2005-05-17 07:43:15 51°14.366 2°54.119 12.1095 3.517997 30.069017 10.983332
2005-05-17 07:43:20 51°14.361 2°54.092 12.0811 3.517365 30.066174 10.747366
2005-05-17 07:43:24 51°14.354 2°54.072 12.0981 3.505566 29.959933 10.477691
2005-05-17 07:43:30 51°14.346 2°54.041 12.0853 3.513678 30.039392 11.219298
2005-05-17 07:43:35 51°14.337 2°54.016 12.0909 3.510412 30.013449 11.050751
2005-05-17 07:43:40 51°14.33 2°53.991 12.078 3.524002 30.144952 10.5114
2005-05-17 07:43:44 51°14.324 2°53.971 12.0842 3.524002 30.144952 10.5114
2005-05-17 07:43:50 51°14.314 2°53.941 12.0821 3.520526 30.110053 11.185589
2005-05-17 07:43:55 51°14.306 2°53.916 12.0721 3.520526 30.108789 11.354136
2005-05-17 07:44:00 51°14.298 2°53.891 12.0874 3.510517 30.015709 11.08446
2005-05-17 07:44:05 51°14.291 2°53.865 12.0763 3.523791 30.140421 11.219298
2005-05-17 07:44:10 51°14.282 2°53.84 12.0798 3.519051 30.097318 11.320426
2005-05-17 07:44:14 51°14.276 2°53.816 12.0888 3.519051 30.097318 11.320426
2005-05-17 07:44:20 51°14.267 2°53.789 12.079 3.513678 30.050742 10.949623
2005-05-17 07:44:24 51°14.261 2°53.769 12.072 3.515679 30.071003 11.219298
2005-05-17 07:44:30 51°14.25 2°53.738 12.0914 3.524529 30.156916 10.814785
2005-05-17 07:44:34 51°14.244 2°53.717 12.0712 3.515047 30.066897 11.354136
2005-05-17 07:44:40 51°14.234 2°53.69 12.0611 3.519894 30.115431 10.747366
2005-05-17 07:44:45 51°14.226 2°53.665 12.058 3.519894 30.115431 10.747366
2005-05-17 07:44:50 51°14.216 2°53.637 12.0635 3.515996 30.076528 11.08446
2005-05-17 07:44:55 51°14.209 2°53.615 12.0531 3.519051 30.1049 10.983332
2005-05-17 07:45:00 51°14.2 2°53.59 12.057 3.523581 30.149812 10.814785
2005-05-17 07:45:05 51°14.192 2°53.565 12.0631 3.525161 30.167986 11.253007
2005-05-17 07:45:10 51°14.183 2°53.541 12.0742 3.527268 30.189902 11.11817
2005-05-17 07:45:15 51°14.175 2°53.515 12.0586 3.527268 30.189902 11.11817
2005-05-17 07:45:18 51°14.169 2°53.501 12.0595 3.523686 30.160945 10.882204
2005-05-17 07:45:24 51°14.159 2°53.471 12.0504 3.515258 30.08532 10.679947
2005-05-17 07:45:30 51°14.149 2°53.441 12.0482 3.524108 30.171286 11.11817
2005-05-17 07:45:35 51°14.139 2°53.417 12.0661 3.527374 30.202955 10.747366
2005-05-17 07:45:40 51°14.131 2°53.392 12.0557 3.522949 30.160909 11.151879
2005-05-17 07:45:44 51°14.124 2°53.372 12.0457 3.522949 30.160909 11.151879
2005-05-17 07:45:50 51°14.114 2°53.342 12.0653 3.527269 30.200685 11.320426
2005-05-17 07:45:55 51°14.105 2°53.318 12.0492 3.523687 30.16855 11.455264
2005-05-17 07:46:00 51°14.097 2°53.293 12.0505 3.522738 30.162076 11.185589
2005-05-17 07:46:03 51°14.091 2°53.275 12.049 3.523687 30.174256 11.151879
2005-05-17 07:46:10 51°14.08 2°53.243 12.0573 3.523476 30.170985 11.455264
2005-05-17 07:46:14 51°14.071 2°53.222 12.0622 3.523476 30.170985 11.455264
2005-05-17 07:46:20 51°14.063 2°53.193 12.0497 3.524108 30.177627 11.758648
2005-05-17 07:46:24 51°14.055 2°53.175 12.0562 3.527479 30.211574 10.882204
2005-05-17 07:46:30 51°14.043 2°53.141 12.0551 3.521158 30.152129 11.354136
2005-05-17 07:46:34 51°14.037 2°53.121 12.0454 3.514205 30.087325 11.151879
2005-05-17 07:46:40 51°14.027 2°53.094 12.0622 3.524424 30.183802 11.792358
2005-05-17 07:46:44 51°14.021 2°53.073 12.0554 3.524424 30.183802 11.792358
2005-05-17 07:46:50 51°14.009 2°53.042 12.0477 3.515364 30.096437 11.219298
2005-05-17 07:46:54 51°14.001 2°53.022 12.0481 3.519262 30.131575 11.455264
2005-05-17 07:47:00 51°13.991 2°52.996 12.0539 3.524424 30.183802 11.69123
2005-05-17 07:47:04 51°13.984 2°52.977 12.0489 3.525372 30.195353 11.421554
2005-05-17 07:47:10 51°13.97 2°52.947 12.085 3.523687 30.180599 11.151879
2005-05-17 07:47:14 51°13.963 2°52.926 12.0573 3.523687 30.180599 11.151879
2005-05-17 07:47:20 51°13.95 2°52.904 12.0732 3.513573 30.083848 11.455264
2005-05-17 07:47:24 51°13.944 2°52.883 12.0579 3.516101 30.109139 10.073178
2005-05-17 07:47:30 51°13.931 2°52.856 12.0543 3.518103 30.128162 9.97205
2005-05-17 07:47:35 51°13.922 2°52.832 12.0584 3.519262 30.138542 10.106888
2005-05-17 07:47:40 51°13.91 2°52.81 12.0629 3.514626 30.092593 9.837212
2005-05-17 07:47:45 51°13.901 2°52.787 12.0486 3.514626 30.092593 9.837212
2005-05-17 07:47:50 51°13.89 2°52.764 12.0747 3.515153 30.093171 9.938341
2005-05-17 07:47:54 51°13.882 2°52.742 12.0623 3.512203 30.063253 10.106888
2005-05-17 07:48:00 51°13.87 2°52.718 12.0759 3.509991 30.038453 10.073178
2005-05-17 07:48:05 51°13.861 2°52.694 12.0664 3.515785 30.096014 10.106888
2005-05-17 07:48:10 51°13.848 2°52.669 12.0631 3.516207 30.101282 10.039469
2005-05-17 07:48:15 51°13.841 2°52.647 12.0541 3.516207 30.101282 10.039469
2005-05-17 07:48:20 51°13.83 2°52.626 12.0468 3.511466 30.058143 10.073178
2005-05-17 07:48:24 51°13.822 2°52.606 12.0688 3.521264 30.152496 10.208016
2005-05-17 07:48:30 51°13.81 2°52.578 12.0485 3.517049 30.11182 10.140597
2005-05-17 07:48:35 51°13.799 2°52.556 12.0686 3.528954 30.222419 10.073178
2005-05-17 07:48:40 51°13.789 2°52.532 12.0568 3.524424 30.179996 10.241725
2005-05-17 07:48:45 51°13.778 2°52.51 12.0658 3.524424 30.179996 10.241725
2005-05-17 07:48:50 51°13.769 2°52.487 12.035 3.524424 30.180631 10.039469
2005-05-17 07:48:55 51°13.757 2°52.465 12.038 3.52474 30.188075 9.97205
2005-05-17 07:49:00 51°13.748 2°52.44 12.0228 3.529586 30.232875 10.073178
2005-05-17 07:49:05 51°13.737 2°52.418 12.0162 3.526321 30.203097 10.005759
2005-05-17 07:49:10 51°13.728 2°52.393 12.0264 3.52611 30.201094 9.769794
2005-05-17 07:49:14 51°13.72 2°52.371 12.0141 3.52611 30.201094 9.769794
2005-05-17 07:49:20 51°13.71 2°52.344 12.0247 3.52906 30.231044 9.769794
2005-05-17 07:49:25 51°13.702 2°52.319 12.0241 3.523687 30.181233 10.039469
2005-05-17 07:49:30 51°13.691 2°52.293 12.0216 3.52906 30.238672 9.837212
2005-05-17 07:49:35 51°13.684 2°52.271 12.0273 3.528533 30.240657 9.803503
2005-05-17 07:49:40 51°13.675 2°52.247 12.0263 3.531483 30.271903 9.769794
2005-05-17 07:49:45 51°13.665 2°52.223 12.0269 3.531483 30.271903 9.769794
2005-05-17 07:49:50 51°13.657 2°52.198 12.0267 3.533696 30.294866 10.039469
2005-05-17 07:49:55 51°13.647 2°52.174 12.0254 3.527164 30.237169 9.601247
2005-05-17 07:49:59 51°13.64 2°52.151 12.0211 3.521369 30.182044 9.466409
2005-05-17 07:50:04 51°13.63 2°52.128 12.038 3.531273 30.276904 9.466409
2005-05-17 07:50:10 51°13.621 2°52.1 12.025 3.522317 30.190429 9.39899
2005-05-17 07:50:14 51°13.612 2°52.079 12.0469 3.522317 30.190429 9.39899
2005-05-17 07:50:20 51°13.604 2°52.051 12.0308 3.523266 30.199448 9.533828
2005-05-17 07:50:25 51°13.593 2°52.025 12.0273 3.529692 30.259955 9.264153
2005-05-17 07:50:30 51°13.586 2°52.001 12.0327 3.525583 30.22277 9.500118
2005-05-17 07:50:34 51°13.579 2°51.979 12.0203 3.530535 30.269249 9.264153
2005-05-17 07:50:40 51°13.569 2°51.952 12.0243 3.528217 30.244648 9.331571
2005-05-17 07:50:45 51°13.56 2°51.924 12.0302 3.528217 30.244648 9.331571
2005-05-17 07:50:50 51°13.551 2°51.9 12.0316 3.528112 30.241737 9.365281
2005-05-17 07:50:54 51°13.545 2°51.879 12.0395 2.570367 21.319834 9.500118
2005-05-17 07:51:00 51°13.534 2°51.854 12.0279 3.379895 28.833763 9.668665
2005-05-17 07:51:05 51°13.526 2°51.829 12.0389 3.411811 29.136857 9.634956
2005-05-17 07:51:10 51°13.516 2°51.805 12.0372 2.745092 22.922797 9.904631
2005-05-17 07:51:14 51°13.508 2°51.783 12.0398 2.745092 22.922797 9.904631
2005-05-17 07:51:20 51°13.498 2°51.755 12.0454 3.387058 28.90998 10.039469
2005-05-17 07:51:24 51°13.491 2°51.736 12.0487 3.361462 28.667449 10.208016
2005-05-17 07:51:30 51°13.48 2°51.704 12.053 3.424767 29.262604 10.342853
2005-05-17 07:51:34 51°13.472 2°51.685 12.0495 3.389164 28.923822 10.241725
2005-05-17 07:51:40 51°13.462 2°51.657 12.0517 3.437829 29.383886 10.174306
2005-05-17 07:51:45 51°13.453 2°51.633 12.047 3.437829 29.383886 10.174306
2005-05-17 07:51:50 51°13.444 2°51.608 12.0552 3.361568 28.661212 9.938341
2005-05-17 07:51:54 51°13.437 2°51.587 12.0524 3.37979 28.832767 9.97205
2005-05-17 07:52:00 51°13.427 2°51.559 12.0619 3.404121 29.061032 10.140597
2005-05-17 07:52:05 51°13.418 2°51.535 12.0579 3.422239 29.230669 10.477691
2005-05-17 07:52:09 51°13.409 2°51.514 12.051 3.393272 28.952932 10.039469
2005-05-17 07:52:14 51°13.4 2°51.489 12.0526 3.393272 28.952932 10.039469
2005-05-17 07:52:20 51°13.39 2°51.463 12.0418 3.420448 29.208189 10.275435
2005-05-17 07:52:24 51°13.384 2°51.443 12.0465 3.36557 28.683942 10.275435
2005-05-17 07:52:30 51°13.372 2°51.413 12.0509 2.729626 22.764562 10.208016
2005-05-17 07:52:35 51°13.363 2°51.389 12.0453 2.623061 21.78974 10.5114
2005-05-17 07:52:40 51°13.354 2°51.364 12.0541 2.875888 24.111599 10.578819
2005-05-17 07:52:44 51°13.347 2°51.344 12.0467 2.875888 24.111599 10.578819
2005-05-17 07:52:50 51°13.337 2°51.315 12.0413 2.657038 22.102317 10.5114
2005-05-17 07:52:54 51°13.329 2°51.294 12.0459 3.312381 28.187118 10.5114
2005-05-17 07:53:00 51°13.319 2°51.265 12.0501 2.682495 22.338892 10.309144
2005-05-17 07:53:05 51°13.31 2°51.242 12.0497 3.398433 29.002956 10.410272
2005-05-17 07:53:10 51°13.301 2°51.217 12.0759 3.417183 29.180963 10.477691
2005-05-17 07:53:14 51°13.293 2°51.196 12.0566 3.417183 29.180963 10.477691
2005-05-17 07:53:19 51°13.284 2°51.171 12.0523 2.599501 21.581673 10.309144
2005-05-17 07:53:25 51°13.273 2°51.145 12.0607 2.555538 21.181751 10.309144
2005-05-17 07:53:30 51°13.264 2°51.12 12.0469 3.395484 28.976283 10.309144
2005-05-17 07:53:34 51°13.256 2°51.099 12.0454 3.43035 29.30255 10.241725
2005-05-17 07:53:40 51°13.245 2°51.072 12.0601 2.678708 22.300491 10.342853
2005-05-17 07:53:45 51°13.237 2°51.047 12.0413 2.678708 22.300491 10.342853
2005-05-17 07:53:50 51°13.227 2°51.023 12.0485 3.374312 28.766493 10.443982
2005-05-17 07:53:54 51°13.22 2°51 12.055 3.333551 28.383656 10.039469
2005-05-17 07:54:00 51°13.209 2°50.975 12.0464 3.415392 29.157272 10.140597
2005-05-17 07:54:05 51°13.2 2°50.949 12.0484 3.406123 29.072633 10.140597
2005-05-17 07:54:10 51°13.192 2°50.925 12.043 3.408019 29.091181 10.106888
2005-05-17 07:54:14 51°13.183 2°50.904 12.0443 3.408019 29.091181 10.106888
2005-05-17 07:54:20 51°13.173 2°50.877 12.0494 3.402331 29.037376 9.97205
2005-05-17 07:54:25 51°13.164 2°50.853 12.0461 2.475405 20.45421 10.005759
2005-05-17 07:54:30 51°13.154 2°50.83 12.0561 3.350403 28.548596 10.208016
2005-05-17 07:54:35 51°13.146 2°50.804 12.055 3.336395 28.417633 10.106888
2005-05-17 07:54:40 51°13.135 2°50.782 12.0585 3.341029 28.460748 9.769794
2005-05-17 07:54:44 51°13.129 2°50.761 12.0486 3.341029 28.460748 9.769794
2005-05-17 07:54:50 51°13.117 2°50.733 12.0506 3.390217 28.927701 9.904631
2005-05-17 07:54:54 51°13.109 2°50.711 12.0533 2.880939 24.166872 9.769794
2005-05-17 07:55:00 51°13.099 2°50.684 12.0433 3.367255 28.7089 9.736084
2005-05-17 07:55:04 51°13.091 2°50.665 12.0621 3.374207 28.773962 9.601247
2005-05-17 07:55:10 51°13.082 2°50.634 12.0637 3.444782 29.437399 9.904631
2005-05-17 07:55:15 51°13.071 2°50.611 12.0553 3.444782 29.437399 9.904631
2005-05-17 07:55:20 51°13.064 2°50.585 12.0532 3.411389 29.121848 9.769794
2005-05-17 07:55:25 51°13.054 2°50.562 12.0504 2.728679 22.761606 9.837212
2005-05-17 07:55:30 51°13.045 2°50.536 12.0491 3.399276 29.010315 9.736084
2005-05-17 07:55:35 51°13.035 2°50.509 12.0445 3.425189 29.254906 9.702375
2005-05-17 07:55:40 51°13.027 2°50.487 12.0532 3.41002 29.110727 9.567537
2005-05-17 07:55:45 51°13.019 2°50.462 12.0428 3.41002 29.110727 9.567537
2005-05-17 07:55:50 51°13.009 2°50.438 12.0549 3.358724 28.624127 9.634956
2005-05-17 07:55:54 51°13.002 2°50.416 12.0468 2.631582 21.87208 9.601247
2005-05-17 07:56:00 51°12.992 2°50.389 12.0436 3.171901 26.868975 9.567537
2005-05-17 07:56:04 51°12.984 2°50.371 12.0542 3.367045 28.705101 9.567537
2005-05-17 07:56:10 51°12.974 2°50.34 12.0416 3.318174 28.245254 9.466409
2005-05-17 07:56:14 51°12.965 2°50.319 12.0459 3.318174 28.245254 9.466409
2005-05-17 07:56:20 51°12.955 2°50.291 12.0395 3.377894 28.810609 9.466409
2005-05-17 07:56:25 51°12.945 2°50.269 12.0346 3.386215 28.891075 9.668665
2005-05-17 07:56:29 51°12.937 2°50.245 12.036 3.400119 29.021945 9.533828
2005-05-17 07:56:35 51°12.926 2°50.216 12.0435 2.602551 21.612202 9.634956
2005-05-17 07:56:40 51°12.918 2°50.195 12.0395 3.422766 29.235041 9.769794
2005-05-17 07:56:44 51°12.91 2°50.175 12.0482 3.422766 29.235041 9.769794
2005-05-17 07:56:50 51°12.9 2°50.145 12.0434 3.396432 28.986466 9.601247
2005-05-17 07:56:55 51°12.891 2°50.121 12.0421 3.410968 29.124595 9.736084
2005-05-17 07:57:00 51°12.882 2°50.097 12.0444 3.409494 29.113087 9.803503
2005-05-17 07:57:04 51°12.874 2°50.078 12.0485 3.399276 29.018244 9.702375
2005-05-17 07:57:10 51°12.863 2°50.047 12.0398 3.396116 28.987134 9.769794
2005-05-17 07:57:15 51°12.855 2°50.026 12.0359 3.396116 28.987134 9.769794
2005-05-17 07:57:20 51°12.844 2°50.002 12.0492 3.346611 28.519408 9.634956
2005-05-17 07:57:25 51°12.836 2°49.977 12.0512 3.378315 28.817619 9.837212
2005-05-17 07:57:30 51°12.826 2°49.953 12.0479 3.43962 29.398384 9.803503
2005-05-17 07:57:34 51°12.819 2°49.932 12.0413 2.991453 25.193846 9.97205
2005-05-17 07:57:40 51°12.808 2°49.905 12.0655 3.234029 27.45893 9.938341
2005-05-17 07:57:44 51°12.802 2°49.885 12.0438 3.234029 27.45893 9.938341
2005-05-17 07:57:50 51°12.788 2°49.855 12.0552 3.322703 28.295073 10.309144
2005-05-17 07:57:54 51°12.782 2°49.834 12.0443 3.402857 29.053349 10.275435
2005-05-17 07:58:00 51°12.771 2°49.809 12.0433 3.385583 28.887529 10.241725
2005-05-17 07:58:04 51°12.762 2°49.787 12.0687 3.096093 26.167597 10.275435
2005-05-17 07:58:10 51°12.753 2°49.761 12.0489 3.531272 30.267351 10.342853
2005-05-17 07:58:14 51°12.745 2°49.739 12.042 3.531272 30.267351 10.342853
2005-05-17 07:58:20 51°12.734 2°49.713 12.0486 3.53064 30.256883 10.477691
2005-05-17 07:58:24 51°12.727 2°49.691 12.0423 3.53064 30.256246 10.208016
2005-05-17 07:58:30 51°12.717 2°49.664 12.0385 3.530324 30.249423 10.140597
2005-05-17 07:58:35 51°12.708 2°49.64 12.0443 3.529376 30.241042 10.612529
2005-05-17 07:58:39 51°12.699 2°49.619 12.0331 3.529692 30.242776 10.376563
2005-05-17 07:58:44 51°12.69 2°49.597 12.0558 3.529692 30.242776 10.376563
2005-05-17 07:58:50 51°12.679 2°49.568 12.0358 3.530008 30.25087 10.5114
2005-05-17 07:58:54 51°12.672 2°49.545 12.0304 3.530008 30.254051 10.342853
2005-05-17 07:59:00 51°12.661 2°49.519 12.0284 3.530008 30.256597 10.646238
2005-05-17 07:59:05 51°12.652 2°49.495 12.0219 3.529903 30.256231 10.342853
2005-05-17 07:59:10 51°12.643 2°49.471 12.0168 3.529481 30.250949 10.443982
2005-05-17 07:59:14 51°12.634 2°49.45 12.0279 3.529481 30.250949 10.443982
2005-05-17 07:59:20 51°12.624 2°49.423 12.0243 3.529903 30.254958 10.410272
2005-05-17 07:59:24 51°12.616 2°49.404 12.018 3.529903 30.256231 10.376563
2005-05-17 07:59:30 51°12.605 2°49.374 12.0209 3.530535 30.266701 10.376563
2005-05-17 07:59:34 51°12.596 2°49.353 12.0436 3.531167 30.277812 10.241725
2005-05-17 07:59:40 51°12.587 2°49.326 12.0284 3.531378 30.283641 10.174306
2005-05-17 07:59:44 51°12.579 2°49.304 12.0229 3.531378 30.283641 10.174306
2005-05-17 07:59:50 51°12.568 2°49.277 12.0285 3.531905 30.293118 10.174306
2005-05-17 07:59:54 51°12.56 2°49.255 12.024 3.531483 30.285919 10.106888
2005-05-17 08:00:00 51°12.549 2°49.228 12.0253 3.531273 30.284551 10.039469
2005-05-17 08:00:05 51°12.539 2°49.202 12.022 3.531273 30.283913 10.073178
2005-05-17 08:00:10 51°12.532 2°49.178 12.0205 3.530324 30.272339 9.904631
2005-05-17 08:00:14 51°12.523 2°49.157 12.0368 3.530324 30.272339 9.904631
2005-05-17 08:00:20 51°12.513 2°49.13 12.0308 3.530535 30.276256 10.005759
2005-05-17 08:00:25 51°12.503 2°49.102 12.0215 3.530641 30.277896 10.174306
2005-05-17 08:00:30 51°12.493 2°49.078 12.0321 3.530851 30.280539 10.073178
2005-05-17 08:00:34 51°12.487 2°49.058 12.0234 3.530746 30.278899 10.376563
2005-05-17 08:00:40 51°12.476 2°49.031 12.0343 3.530851 30.281177 10.342853
2005-05-17 08:00:44 51°12.468 2°49.008 12.0274 3.530851 30.281177 10.342853
2005-05-17 08:00:50 51°12.458 2°48.982 12.032 3.529903 30.272151 10.342853
2005-05-17 08:00:54 51°12.45 2°48.96 12.0295 3.529271 30.26486 10.309144
2005-05-17 08:01:00 51°12.44 2°48.933 12.0269 3.529587 30.268505 10.241725
2005-05-17 08:01:05 51°12.431 2°48.908 12.0363 3.529587 30.267868 10.106888
2005-05-17 08:01:10 51°12.422 2°48.883 12.0401 3.529166 30.264494 10.275435
2005-05-17 08:01:14 51°12.412 2°48.862 12.0449 3.529166 30.264494 10.275435
2005-05-17 08:01:20 51°12.403 2°48.834 12.0408 3.529271 30.264223 10.106888
2005-05-17 08:01:24 51°12.394 2°48.813 12.0489 3.529271 30.26486 10.073178
2005-05-17 08:01:30 51°12.384 2°48.782 12.0446 3.529166 30.262583 10.342853
2005-05-17 08:01:34 51°12.376 2°48.763 12.0504 3.52906 30.260944 10.140597
2005-05-17 08:01:40 51°12.366 2°48.735 12.0473 3.528849 30.256392 10.309144
2005-05-17 08:01:44 51°12.359 2°48.715 12.0469 3.528849 30.256392 10.309144
2005-05-17 08:01:50 51°12.348 2°48.684 12.0517 3.528323 30.248833 10.208016
2005-05-17 08:01:54 51°12.34 2°48.662 12.0483 3.528428 30.247926 10.477691
2005-05-17 08:02:00 51°12.33 2°48.635 12.0531 3.528323 30.245014 10.477691
2005-05-17 08:02:05 51°12.321 2°48.61 12.0608 3.528323 30.242469 10.646238
2005-05-17 08:02:10 51°12.311 2°48.581 12.063 3.516418 30.12861 10.443982
2005-05-17 08:02:14 51°12.303 2°48.562 12.0627 3.516418 30.12861 10.443982
2005-05-17 08:02:20 51°12.294 2°48.534 12.0679 3.516418 30.126075 10.477691
2005-05-17 08:02:25 51°12.283 2°48.506 12.0819 3.516523 30.127077 10.578819
2005-05-17 08:02:30 51°12.276 2°48.483 12.0818 3.515259 30.115058 10.5114
2005-05-17 08:02:35 51°12.266 2°48.459 12.0726 3.516523 30.125176 10.612529
2005-05-17 08:02:40 51°12.257 2°48.434 12.0815 3.516523 30.122642 10.848494
2005-05-17 08:02:45 51°12.247 2°48.406 12.0834 3.516523 30.122642 10.848494
2005-05-17 08:02:50 51°12.238 2°48.383 12.0911 3.516523 30.119475 10.949623
2005-05-17 08:02:54 51°12.232 2°48.36 12.0826 3.515785 30.110566 10.747366
2005-05-17 08:03:00 51°12.219 2°48.334 12.1059 3.515785 30.106769 10.781076
2005-05-17 08:03:05 51°12.211 2°48.307 12.0811 3.515575 30.100337 10.814785
2005-05-17 08:03:09 51°12.203 2°48.285 12.072 3.51568 30.09944 10.578819
2005-05-17 08:03:14 51°12.194 2°48.26 12.0835 3.51568 30.09944 10.578819
2005-05-17 08:03:20 51°12.184 2°48.232 12.0733 3.516312 30.103548 10.915913
2005-05-17 08:03:24 51°12.175 2°48.211 12.0706 3.516207 30.100017 10.915913
2005-05-17 08:03:30 51°12.165 2°48.182 12.0763 3.516628 30.102122 10.814785
2005-05-17 08:03:34 51°12.156 2°48.161 12.0714 3.516206 30.094958 11.08446
2005-05-17 08:03:40 51°12.147 2°48.133 12.0719 3.517049 30.105493 11.017042
2005-05-17 08:03:45 51°12.137 2°48.108 12.0743 3.517049 30.105493 11.017042
2005-05-17 08:03:50 51°12.129 2°48.083 12.0764 3.51726 30.11129 10.882204
2005-05-17 08:03:55 51°12.119 2°48.058 12.0814 3.51726 30.111923 10.882204
2005-05-17 08:04:00 51°12.109 2°48.031 12.0914 3.519156 30.13184 10.848494
2005-05-17 08:04:05 51°12.101 2°48.008 12.0758 3.517049 30.11182 10.915913
2005-05-17 08:04:10 51°12.09 2°47.985 12.0899 3.517049 30.113085 10.949623
2005-05-17 08:04:15 51°12.082 2°47.959 12.0806 3.517049 30.113085 10.949623
2005-05-17 08:04:20 51°12.072 2°47.934 12.0884 3.51431 30.087693 10.915913
2005-05-17 08:04:25 51°12.063 2°47.909 12.1034 3.512835 30.073681 10.949623
2005-05-17 08:04:30 51°12.053 2°47.886 12.1017 3.513151 30.074787 10.915913
2005-05-17 08:04:34 51°12.045 2°47.862 12.1002 3.513678 30.075999 11.017042
2005-05-17 08:04:40 51°12.033 2°47.836 12.1014 3.515258 30.090377 10.983332
2005-05-17 08:04:45 51°12.023 2°47.812 12.1005 3.515258 30.090377 10.983332
2005-05-17 08:04:50 51°12.015 2°47.786 12.1054 3.51136 30.053353 10.915913
2005-05-17 08:04:54 51°12.006 2°47.764 12.0973 3.513046 30.066836 10.882204
2005-05-17 08:05:00 51°11.996 2°47.737 12.1097 3.518524 30.114442 10.949623
2005-05-17 08:05:04 51°11.987 2°47.715 12.0937 3.515048 30.077632 10.915913
2005-05-17 08:05:10 51°11.977 2°47.684 12.1008 3.514521 30.070104 11.151879
2005-05-17 08:05:15 51°11.966 2°47.664 12.0968 3.514521 30.070104 11.151879
2005-05-17 08:05:20 51°11.958 2°47.637 12.1168 3.51589 30.081844 10.949623
2005-05-17 08:05:24 51°11.95 2°47.615 12.0937 3.514626 30.067316 11.050751
2005-05-17 08:05:30 51°11.94 2°47.585 12.0973 3.514099 30.060421 10.915913
2005-05-17 08:05:35 51°11.93 2°47.563 12.1206 3.514626 30.066684 11.050751
2005-05-17 08:05:40 51°11.922 2°47.538 12.0977 3.513783 30.053635 11.017042
2005-05-17 08:05:44 51°11.913 2°47.517 12.1016 3.513783 30.053635 11.017042
2005-05-17 08:05:50 51°11.902 2°47.489 12.096 3.51747 30.087371 10.882204
2005-05-17 08:05:54 51°11.895 2°47.466 12.0831 3.514626 30.061003 10.612529
2005-05-17 08:06:00 51°11.884 2°47.44 12.0782 3.515785 30.076423 10.646238
2005-05-17 08:06:05 51°11.875 2°47.415 12.0899 3.526215 30.177993 10.915913
2005-05-17 08:06:10 51°11.866 2°47.39 12.0754 3.525899 30.172456 10.781076
2005-05-17 08:06:15 51°11.856 2°47.366 12.072 3.525899 30.172456 10.781076
2005-05-17 08:06:20 51°11.846 2°47.341 12.0764 3.527058 30.184731 11.08446
2005-05-17 08:06:24 51°11.839 2°47.318 12.0653 3.526004 30.176625 10.983332
2005-05-17 08:06:30 51°11.827 2°47.29 12.0685 3.525372 30.175691 10.983332
2005-05-17 08:06:34 51°11.82 2°47.269 12.0638 3.525478 30.181129 11.151879
2005-05-17 08:06:40 51°11.809 2°47.243 12.0593 3.52337 30.162378 11.151879
2005-05-17 08:06:45 51°11.8 2°47.217 12.0483 3.52337 30.162378 11.151879
2005-05-17 08:06:50 51°11.791 2°47.192 12.0493 3.52316 30.164178 11.185589
2005-05-17 08:06:54 51°11.784 2°47.169 12.0436 3.522738 30.162709 11.320426
2005-05-17 08:07:00 51°11.773 2°47.143 12.0439 3.521474 30.154498 11.387845
2005-05-17 08:07:05 51°11.765 2°47.116 12.0433 3.520105 30.143384 11.253007
2005-05-17 08:07:10 51°11.754 2°47.092 12.0357 3.517682 30.124157 11.253007
2005-05-17 08:07:14 51°11.746 2°47.069 12.0447 3.517682 30.124157 11.253007
2005-05-17 08:07:20 51°11.737 2°47.042 12.0398 3.518419 30.134966 11.050751
2005-05-17 08:07:25 51°11.726 2°47.015 12.0482 3.517892 30.136929 11.286717
2005-05-17 08:07:30 51°11.717 2°46.989 12.0442 3.518314 30.143471 11.219298
2005-05-17 08:07:34 51°11.71 2°46.969 12.0453 3.517893 30.140732 11.354136
2005-05-17 08:07:40 51°11.699 2°46.944 12.0538 3.515996 30.123336 11.253007
2005-05-17 08:07:44 51°11.692 2°46.922 12.0556 3.515996 30.123336 11.253007
2005-05-17 08:07:50 51°11.679 2°46.89 12.0549 3.51726 30.137892 11.387845
2005-05-17 08:07:54 51°11.672 2°46.87 12.0621 3.51705 30.136522 11.455264
2005-05-17 08:08:00 51°11.662 2°46.843 12.0611 3.517471 30.139261 11.219298
2005-05-17 08:08:05 51°11.651 2°46.816 12.0769 3.517787 30.142267 11.421554
2005-05-17 08:08:10 51°11.643 2°46.793 12.0699 3.518103 30.144004 11.556392
2005-05-17 08:08:14 51°11.635 2°46.77 12.079 3.518103 30.144004 11.556392
2005-05-17 08:08:20 51°11.625 2°46.743 12.0747 3.51863 30.145842 11.488973
2005-05-17 08:08:25 51°11.615 2°46.719 12.0836 3.519051 30.148581 11.590101
2005-05-17 08:08:30 51°11.605 2°46.693 12.0811 3.520105 30.157329 11.522683
2005-05-17 08:08:35 51°11.596 2°46.668 12.085 3.520948 30.162171 11.320426
2005-05-17 08:08:40 51°11.587 2°46.644 12.0824 3.52158 30.165009 11.08446
2005-05-17 08:08:45 51°11.578 2°46.618 12.0927 3.52158 30.165009 11.08446
2005-05-17 08:08:50 51°11.569 2°46.592 12.0939 3.522106 30.166212 11.286717
2005-05-17 08:08:55 51°11.56 2°46.567 12.08 3.522739 30.169683 11.050751
2005-05-17 08:09:00 51°11.55 2°46.543 12.0721 3.523476 30.174156 10.882204
2005-05-17 08:09:04 51°11.543 2°46.522 12.0732 3.523792 30.173989 11.017042
2005-05-17 08:09:10 51°11.532 2°46.492 12.0635 3.524213 30.17736 10.814785
2005-05-17 08:09:14 51°11.524 2°46.469 12.0635 3.524213 30.17736 10.814785
2005-05-17 08:09:20 51°11.513 2°46.442 12.0528 3.525056 30.183467 10.915913
2005-05-17 08:09:24 51°11.507 2°46.421 12.0467 3.52474 30.176024 10.949623
2005-05-17 08:09:30 51°11.494 2°46.389 12.0508 3.524424 30.174923 10.882204
2005-05-17 08:09:34 51°11.487 2°46.368 12.0371 3.524003 30.175991 10.983332
2005-05-17 08:09:40 51°11.476 2°46.343 12.0346 3.522317 30.162508 10.882204
2005-05-17 08:09:44 51°11.469 2°46.322 12.0423 3.522317 30.162508 10.882204
2005-05-17 08:09:50 51°11.457 2°46.289 12.0349 3.521369 30.1573 11.08446
2005-05-17 08:09:54 51°11.45 2°46.269 12.0336 3.519894 30.14962 10.848494
2005-05-17 08:10:00 51°11.44 2°46.241 12.0576 3.518841 30.14531 10.915913
2005-05-17 08:10:04 51°11.434 2°46.221 12.0384 3.517576 30.137093 10.848494
2005-05-17 08:10:10 51°11.422 2°46.189 12.04 3.516418 30.127976 11.017042
2005-05-17 08:10:14 51°11.414 2°46.17 12.053 3.516418 30.127976 11.017042
2005-05-17 08:10:20 51°11.404 2°46.141 12.0456 3.516102 30.127506 10.983332
2005-05-17 08:10:25 51°11.395 2°46.116 12.0474 3.515996 30.128405 11.050751
2005-05-17 08:10:30 51°11.386 2°46.091 12.0494 3.516312 30.133947 11.253007
2005-05-17 08:10:34 51°11.378 2°46.068 12.055 3.516734 30.135418 11.08446
2005-05-17 08:10:40 51°11.368 2°46.041 12.0641 3.516734 30.136052 10.949623
2005-05-17 08:10:44 51°11.36 2°46.019 12.0528 3.516734 30.136052 10.949623
2005-05-17 08:10:50 51°11.349 2°45.992 12.0582 3.516944 30.137422 10.915913
2005-05-17 08:10:54 51°11.341 2°45.97 12.0581 3.516944 30.13552 10.915913
2005-05-17 08:11:00 51°11.329 2°45.941 12.0602 3.517998 30.145538 11.017042
2005-05-17 08:11:04 51°11.323 2°45.923 12.0631 3.518735 30.150014 10.747366
2005-05-17 08:11:10 51°11.313 2°45.893 12.0605 3.519578 30.154223 10.814785
2005-05-17 08:11:14 51°11.304 2°45.872 12.0637 3.519578 30.154223 10.814785
2005-05-17 08:11:20 51°11.294 2°45.844 12.0656 3.520105 30.158598 10.612529
2005-05-17 08:11:24 51°11.287 2°45.823 12.0619 3.520842 30.164975 10.747366
2005-05-17 08:11:30 51°11.275 2°45.795 12.0525 3.521053 30.16571 10.646238
2005-05-17 08:11:35 51°11.266 2°45.77 12.0644 3.52179 30.170818 10.882204
2005-05-17 08:11:40 51°11.257 2°45.745 12.0616 3.522107 30.172555 10.848494
2005-05-17 08:11:45 51°11.248 2°45.72 12.0656 3.522107 30.172555 10.848494
2005-05-17 08:11:50 51°11.238 2°45.693 12.0623 3.522633 30.175659 10.54511
2005-05-17 08:11:54 51°11.23 2°45.673 12.0642 3.512835 30.082533 10.54511
2005-05-17 08:12:00 51°11.22 2°45.645 12.0669 3.506304 30.021733 10.781076
2005-05-17 08:12:04 51°11.214 2°45.622 12.0613 3.50504 30.011616 10.747366
2005-05-17 08:12:10 51°11.202 2°45.593 12.0708 3.503143 29.992339 10.646238
2005-05-17 08:12:14 51°11.196 2°45.573 12.0512 3.503143 29.992339 10.646238
2005-05-17 08:12:20 51°11.185 2°45.546 12.0547 3.515996 30.112569 10.646238
2005-05-17 08:12:25 51°11.177 2°45.52 12.0442 3.514943 30.101291 10.477691
2005-05-17 08:12:30 51°11.167 2°45.495 12.0586 3.514416 30.096285 10.410272
2005-05-17 08:12:35 51°11.159 2°45.47 12.0431 3.513573 30.087643 10.309144
2005-05-17 08:12:40 51°11.149 2°45.446 12.0399 3.513573 30.088275 10.342853
2005-05-17 08:12:45 51°11.141 2°45.419 12.0368 3.513573 30.088275 10.342853
2005-05-17 08:12:50 51°11.132 2°45.395 12.0349 3.513152 30.084271 10.275435
2005-05-17 08:12:54 51°11.124 2°45.372 12.0408 3.512836 30.085695 10.275435
2005-05-17 08:13:00 51°11.115 2°45.344 12.0319 3.512625 30.086856 10.275435
2005-05-17 08:13:05 51°11.106 2°45.318 12.0241 3.512625 30.087489 10.174306
2005-05-17 08:13:10 51°11.099 2°45.291 12.0314 3.512625 30.091286 10.342853
2005-05-17 08:13:14 51°11.091 2°45.269 12.0206 3.512625 30.091286 10.342853
2005-05-17 08:13:20 51°11.082 2°45.242 12.0327 3.51252 30.092183 10.106888
2005-05-17 08:13:25 51°11.073 2°45.217 12.0208 3.512098 30.090075 10.309144
2005-05-17 08:13:30 51°11.065 2°45.191 12.0292 3.512204 30.092343 10.140597
2005-05-17 08:13:34 51°11.058 2°45.166 12.0212 3.511993 30.093505 10.275435
2005-05-17 08:13:40 51°11.05 2°45.137 12.0182 3.512098 30.096407 10.241725
2005-05-17 08:13:44 51°11.044 2°45.117 12.016 3.512098 30.096407 10.241725
2005-05-17 08:13:50 51°11.034 2°45.086 12.0276 3.511888 30.096936 10.241725
2005-05-17 08:13:55 51°11.026 2°45.061 12.0216 3.511993 30.101105 10.208016
2005-05-17 08:14:00 51°11.019 2°45.034 12.024 3.511361 30.095727 10.241725
2005-05-17 08:14:04 51°11.012 2°45.01 12.018 3.511361 30.09636 10.410272
2005-05-17 08:14:10 51°11.004 2°44.982 12.013 3.511256 30.097258 10.54511
2005-05-17 08:14:14 51°10.998 2°44.957 12.0136 3.511256 30.097258 10.54511
2005-05-17 08:14:20 51°10.991 2°44.928 12.0122 3.511466 30.101797 10.814785
2005-05-17 08:14:24 51°10.986 2°44.906 12.0194 3.511256 30.100426 10.612529
2005-05-17 08:14:30 51°10.978 2°44.87 12.0138 3.510834 30.09515 10.747366
2005-05-17 08:14:34 51°10.972 2°44.849 12.0247 3.510834 30.09515 10.578819
2005-05-17 08:14:40 51°10.965 2°44.819 12.0185 3.511256 30.10106 10.54511
2005-05-17 08:14:44 51°10.96 2°44.798 12.0186 3.511256 30.10106 10.54511
2005-05-17 08:14:50 51°10.952 2°44.764 12.0296 3.511993 30.110611 10.848494
2005-05-17 08:14:54 51°10.947 2°44.74 12.0226 3.511256 30.104228 10.949623
2005-05-17 08:15:00 51°10.938 2°44.711 12.0309 3.511993 30.112513 11.08446
2005-05-17 08:15:04 51°10.934 2°44.689 12.0353 3.511782 30.107338 11.050751
2005-05-17 08:15:10 51°10.924 2°44.657 12.0352 3.511572 30.103433 10.814785
2005-05-17 08:15:15 51°10.918 2°44.63 12.0435 3.511572 30.103433 10.814785
2005-05-17 08:15:20 51°10.911 2°44.602 12.0526 3.512415 30.112718 11.11817
2005-05-17 08:15:24 51°10.905 2°44.578 12.0564 3.513257 30.120102 11.11817
2005-05-17 08:15:30 51°10.897 2°44.546 12.056 3.513468 30.118303 10.949623
2005-05-17 08:15:34 51°10.89 2°44.525 12.0617 3.514311 30.124418 11.185589
2005-05-17 08:15:40 51°10.884 2°44.49 12.0745 3.51568 30.134275 11.185589
2005-05-17 08:15:44 51°10.878 2°44.473 12.0735 3.51568 30.134275 11.185589
2005-05-17 08:15:49 51°10.872 2°44.442 12.0791 3.516628 30.142026 11.421554
2005-05-17 08:15:54 51°10.864 2°44.416 12.0764 3.517366 30.143332 11.455264
2005-05-17 08:15:59 51°10.859 2°44.388 12.075 3.518103 30.145272 11.320426
2005-05-17 08:16:05 51°10.85 2°44.356 12.078 3.519367 30.153488 11.354136
2005-05-17 08:16:10 51°10.844 2°44.328 12.0824 3.520316 30.156796 11.11817
2005-05-17 08:16:15 51°10.837 2°44.305 12.0819 3.520316 30.156796 11.11817
2005-05-17 08:16:19 51°10.832 2°44.28 12.0887 3.520421 30.149556 11.11817
2005-05-17 08:16:24 51°10.825 2°44.256 12.1048 3.52158 30.158669 11.017042
2005-05-17 08:16:30 51°10.818 2°44.223 12.0979 3.522212 30.163409 10.949623
2005-05-17 08:16:34 51°10.812 2°44.199 12.0894 3.522633 30.165512 10.747366
2005-05-17 08:16:40 51°10.804 2°44.169 12.095 3.52316 30.169884 10.713657
2005-05-17 08:16:44 51°10.799 2°44.144 12.0936 3.52316 30.169884 10.713657
2005-05-17 08:16:50 51°10.791 2°44.114 12.0957 3.523687 30.172354 10.747366
2005-05-17 08:16:54 51°10.787 2°44.089 12.0922 3.524003 30.172821 10.477691
2005-05-17 08:17:00 51°10.778 2°44.06 12.0965 3.523792 30.167016 10.5114
2005-05-17 08:17:04 51°10.772 2°44.038 12.1012 3.524213 30.168484 10.477691
2005-05-17 08:17:10 51°10.765 2°44.006 12.0982 3.524635 30.17122 10.983332
2005-05-17 08:17:15 51°10.757 2°43.98 12.0937 3.524635 30.17122 10.983332
2005-05-17 08:17:20 51°10.751 2°43.951 12.0975 3.524635 30.17122 10.578819
2005-05-17 08:17:24 51°10.746 2°43.93 12.1028 3.525267 30.175958 10.612529
2005-05-17 08:17:30 51°10.738 2°43.898 12.1088 3.525477 30.177326 10.54511
2005-05-17 08:17:34 51°10.732 2°43.873 12.1057 3.525583 30.177059 10.646238
2005-05-17 08:17:40 51°10.725 2°43.843 12.1063 3.525899 30.179427 10.747366
2005-05-17 08:17:45 51°10.718 2°43.816 12.1041 3.525899 30.179427 10.747366
2005-05-17 08:17:50 51°10.711 2°43.789 12.1078 3.526531 30.185432 10.747366
2005-05-17 08:17:55 51°10.705 2°43.761 12.1087 3.526952 30.188802 11.050751
2005-05-17 08:18:00 51°10.697 2°43.735 12.112 3.526952 30.186266 10.612529
2005-05-17 08:18:05 51°10.692 2°43.708 12.1129 3.527795 30.191736 10.54511
2005-05-17 08:18:10 51°10.684 2°43.681 12.1144 3.528533 30.197472 10.54511
2005-05-17 08:18:14 51°10.678 2°43.657 12.1097 3.528533 30.197472 10.54511
2005-05-17 08:18:20 51°10.67 2°43.627 12.1048 3.528954 30.202744 10.443982
2005-05-17 08:18:24 51°10.665 2°43.606 12.1072 3.529165 30.204111 10.309144
2005-05-17 08:18:30 51°10.656 2°43.571 12.0968 3.529059 30.201842 10.241725
2005-05-17 08:18:34 51°10.65 2°43.55 12.0898 3.528533 30.194302 10.275435
2005-05-17 08:18:40 51°10.644 2°43.519 12.0919 3.528954 30.197671 10.208016
2005-05-17 08:18:45 51°10.636 2°43.493 12.0853 3.528954 30.197671 10.208016
2005-05-17 08:18:50 51°10.629 2°43.462 12.0739 3.529375 30.201673 10.241725
2005-05-17 08:18:54 51°10.624 2°43.441 12.064 3.529691 30.205943 10.309144
2005-05-17 08:19:00 51°10.615 2°43.413 12.0711 3.529059 30.199939 9.938341
2005-05-17 08:19:03 51°10.612 2°43.393 12.0551 3.5279 30.192736 9.870922
2005-05-17 08:19:10 51°10.602 2°43.358 12.0625 3.526742 30.186166 10.039469
2005-05-17 08:19:15 51°10.597 2°43.33 12.0474 3.526742 30.186166 10.039469
2005-05-17 08:19:20 51°10.589 2°43.304 12.0416 3.524845 30.171321 10.241725
2005-05-17 08:19:25 51°10.584 2°43.275 12.0302 3.524213 30.170386 10.208016
2005-05-17 08:19:30 51°10.577 2°43.247 12.0365 3.522844 30.163077 10.275435
2005-05-17 08:19:35 51°10.571 2°43.22 12.0356 3.522317 30.165044 10.342853
2005-05-17 08:19:40 51°10.564 2°43.193 12.0267 3.52158 30.160571 10.477691
2005-05-17 08:19:45 51°10.558 2°43.166 12.0242 3.52158 30.160571 10.477691
2005-05-17 08:19:50 51°10.549 2°43.14 12.0319 3.520737 30.154462 10.376563
2005-05-17 08:19:54 51°10.544 2°43.113 12.0422 3.52021 30.158965 10.342853
2005-05-17 08:20:00 51°10.536 2°43.085 12.0232 3.519473 30.157661 10.275435
2005-05-17 08:20:04 51°10.532 2°43.062 12.0227 3.518209 30.150713 10.309144
2005-05-17 08:20:10 51°10.523 2°43.031 12.0244 3.517366 30.146503 10.275435
2005-05-17 08:20:15 51°10.518 2°43.002 12.0202 3.517366 30.146503 10.275435
2005-05-17 08:20:20 51°10.51 2°42.976 12.0238 3.517155 30.147037 10.073178
2005-05-17 08:20:24 51°10.505 2°42.954 12.0224 3.516628 30.142026 10.241725
2005-05-17 08:20:30 51°10.497 2°42.923 12.0184 3.516102 30.132577 10.073178
2005-05-17 08:20:34 51°10.492 2°42.897 12.0116 3.516207 30.136749 9.904631
2005-05-17 08:20:40 51°10.483 2°42.868 12.0086 3.516418 30.141925 9.837212
2005-05-17 08:20:44 51°10.478 2°42.845 12.0038 3.516418 30.141925 9.837212
2005-05-17 08:20:50 51°10.469 2°42.814 12.0011 3.516102 30.141455 9.803503
2005-05-17 08:20:54 51°10.463 2°42.789 11.9995 3.515891 30.14072 9.634956
2005-05-17 08:21:00 51°10.455 2°42.759 12.0036 3.515575 30.138982 9.769794
2005-05-17 08:21:05 51°10.45 2°42.731 12.0057 3.515154 30.13751 9.668665
2005-05-17 08:21:10 51°10.441 2°42.702 12.0157 3.514416 30.133031 9.769794
2005-05-17 08:21:14 51°10.437 2°42.681 12.0079 3.514416 30.133031 9.769794
2005-05-17 08:21:20 51°10.428 2°42.652 12.0339 3.5141 30.13383 9.736084
2005-05-17 08:21:25 51°10.422 2°42.624 12.0276 3.513574 30.132625 9.837212
2005-05-17 08:21:30 51°10.415 2°42.597 12.0208 3.513363 30.132523 10.005759
2005-05-17 08:21:35 51°10.408 2°42.571 12.0234 3.513047 30.130784 10.005759
2005-05-17 08:21:40 51°10.402 2°42.544 12.0179 3.513258 30.132155 9.97205
2005-05-17 08:21:44 51°10.397 2°42.523 12.0196 3.513258 30.132155 9.97205
2005-05-17 08:21:50 51°10.388 2°42.489 12.0366 3.513258 30.128982 9.97205
2005-05-17 08:21:55 51°10.381 2°42.464 12.0161 3.513995 30.132828 9.870922
2005-05-17 08:22:00 51°10.374 2°42.437 12.0278 3.513784 30.123212 9.97205
2005-05-17 08:22:04 51°10.368 2°42.415 12.0185 3.514627 30.130596 10.241725
2005-05-17 08:22:10 51°10.361 2°42.383 12.0226 3.515259 30.135975 10.039469
2005-05-17 08:22:14 51°10.355 2°42.359 12.0198 3.515259 30.135975 10.039469
2005-05-17 08:22:20 51°10.348 2°42.329 12.0118 3.515891 30.141354 10.208016
2005-05-17 08:22:25 51°10.341 2°42.302 12.0284 3.516102 30.140821 10.073178
2005-05-17 08:22:30 51°10.335 2°42.275 12.0159 3.516523 30.14483 10.039469
2005-05-17 08:22:35 51°10.329 2°42.248 12.0349 3.516629 30.147736 10.275435
2005-05-17 08:22:40 51°10.323 2°42.221 12.0192 3.516207 30.14563 10.073178
2005-05-17 08:22:44 51°10.316 2°42.197 12.0304 3.516207 30.14563 10.073178
2005-05-17 08:22:50 51°10.309 2°42.163 12.0281 3.516629 30.153448 9.97205
2005-05-17 08:22:54 51°10.302 2°42.142 12.0455 3.516839 30.156723 9.736084
2005-05-17 08:23:00 51°10.296 2°42.114 12.0468 3.516734 30.15445 9.870922
2005-05-17 08:23:03 51°10.291 2°42.095 12.0469 3.516418 30.151443 9.870922
2005-05-17 08:23:10 51°10.283 2°42.058 12.0385 3.516207 30.147534 9.837212
2005-05-17 08:23:15 51°10.276 2°42.03 12.0606 3.516207 30.147534 9.837212
2005-05-17 08:23:20 51°10.271 2°42.004 12.0324 3.516523 30.150541 9.97205
2005-05-17 08:23:24 51°10.265 2°41.983 12.0434 3.516839 30.150375 9.803503
2005-05-17 08:23:30 51°10.256 2°41.947 12.0325 3.517471 30.153216 9.769794
2005-05-17 08:23:35 51°10.25 2°41.922 12.0358 3.517577 30.150411 9.769794
2005-05-17 08:23:40 51°10.244 2°41.895 12.026 3.518103 30.150346 9.837212
2005-05-17 08:23:44 51°10.238 2°41.873 12.0155 3.518103 30.150346 9.837212
2005-05-17 08:23:50 51°10.229 2°41.839 12.0053 3.519368 30.161101 9.938341
2005-05-17 08:23:54 51°10.224 2°41.817 12.0116 3.519894 30.165476 9.769794
2005-05-17 08:24:00 51°10.217 2°41.787 12.0042 3.520105 30.170654 9.533828
2005-05-17 08:24:05 51°10.21 2°41.76 12.0171 3.518419 30.157793 9.567537
2005-05-17 08:24:10 51°10.203 2°41.733 11.9863 3.517366 30.148406 9.500118
2005-05-17 08:24:14 51°10.196 2°41.709 12.0056 3.517366 30.148406 9.500118
2005-05-17 08:24:20 51°10.188 2°41.676 11.9886 3.516629 30.147101 9.365281
2005-05-17 08:24:24 51°10.184 2°41.657 11.993 3.515997 30.146164 9.196734
2005-05-17 08:24:30 51°10.175 2°41.624 12.0059 3.515259 30.144224 9.196734
2005-05-17 08:24:34 51°10.17 2°41.599 11.9918 3.514732 30.139846 9.061896
2005-05-17 08:24:40 51°10.162 2°41.57 11.9915 3.514311 30.138374 8.927059
2005-05-17 08:24:44 51°10.156 2°41.546 12.0036 3.514311 30.138374 8.927059
2005-05-17 08:24:50 51°10.149 2°41.515 12 3.514311 30.145357 8.994477
2005-05-17 08:24:55 51°10.143 2°41.486 12.0179 3.513574 30.141511 8.994477
2005-05-17 08:24:59 51°10.138 2°41.462 12.0128 3.513047 30.138401 8.792221
2005-05-17 08:25:05 51°10.13 2°41.433 12.02 3.513152 30.138769 8.792221
2005-05-17 08:25:10 51°10.123 2°41.402 12.026 3.513784 30.144787 8.927059
2005-05-17 08:25:14 51°10.118 2°41.38 12.0083 3.513784 30.144787 8.927059
2005-05-17 08:25:19 51°10.112 2°41.353 11.9957 3.51389 30.145155 8.85964
2005-05-17 08:25:25 51°10.105 2°41.323 11.9949 3.514206 30.144354 8.893349
2005-05-17 08:25:30 51°10.097 2°41.293 11.9773 3.514838 30.148466 9.028187
2005-05-17 08:25:34 51°10.093 2°41.271 11.961 3.514522 30.143553 8.960768
2005-05-17 08:25:40 51°10.085 2°41.242 11.9678 3.514732 30.142384 9.061896
2005-05-17 08:25:45 51°10.079 2°41.211 11.9535 3.514732 30.142384 9.061896
2005-05-17 08:25:50 51°10.073 2°41.186 11.9424 3.513995 30.130924 9.028187
2005-05-17 08:25:54 51°10.067 2°41.162 11.9398 3.513468 30.130353 8.994477
2005-05-17 08:26:00 51°10.061 2°41.131 11.9413 3.512626 30.130581 9.061896
2005-05-17 08:26:04 51°10.055 2°41.107 11.942 3.510097 30.11603 8.623674
2005-05-17 08:26:10 51°10.047 2°41.077 11.942 3.508306 30.106592 8.421418
2005-05-17 08:26:15 51°10.041 2°41.05 11.9333 3.508306 30.106592 8.421418
2005-05-17 08:26:20 51°10.035 2°41.023 11.9191 3.507042 30.098995 8.455127
2005-05-17 08:26:24 51°10.027 2°41 11.9241 3.504725 30.086438 8.118033
2005-05-17 08:26:30 51°10.022 2°40.965 11.9245 3.503355 30.079102 7.949486
2005-05-17 08:26:34 51°10.015 2°40.945 11.9279 3.502091 30.070864 7.949486
2005-05-17 08:26:40 51°10.008 2°40.915 11.9376 3.500616 30.059349 7.814648
2005-05-17 08:26:45 51°10.002 2°40.888 11.9296 3.500616 30.059349 7.814648
2005-05-17 08:26:50 51°9.995 2°40.86 11.9356 3.499984 30.055863 7.646101
2005-05-17 08:26:54 51°9.99 2°40.836 11.9326 3.498931 30.050264 7.71352
2005-05-17 08:27:00 51°9.982 2°40.807 11.9284 3.498615 30.051057 7.679811
2005-05-17 08:27:05 51°9.975 2°40.777 11.9311 3.498299 30.046777 7.679811
2005-05-17 08:27:10 51°9.97 2°40.752 11.9298 3.497877 30.042761 7.477554
2005-05-17 08:27:14 51°9.964 2°40.728 11.9373 3.497877 30.042761 7.477554
2005-05-17 08:27:20 51°9.958 2°40.698 11.9255 3.497456 30.038112 7.71352
2005-05-17 08:27:25 51°9.951 2°40.671 11.9415 3.497245 30.036104 7.544973
2005-05-17 08:27:30 51°9.945 2°40.64 11.9362 3.497245 30.036738 7.511264
2005-05-17 08:27:35 51°9.939 2°40.615 11.9428 3.49735 30.039644 7.612392
2005-05-17 08:27:40 51°9.933 2°40.588 11.9413 3.497245 30.039274 7.578683
2005-05-17 08:27:45 51°9.925 2°40.561 11.9437 3.497245 30.039274 7.578683
2005-05-17 08:27:50 51°9.92 2°40.533 11.9502 3.497772 30.044928 7.477554
2005-05-17 08:27:54 51°9.914 2°40.508 11.9445 3.498193 30.047041 7.477554
2005-05-17 08:28:00 51°9.908 2°40.478 11.9593 3.498615 30.049155 7.443845
2005-05-17 08:28:05 51°9.902 2°40.45 11.9474 3.499036 30.05 7.410136
2005-05-17 08:28:10 51°9.894 2°40.42 11.9531 3.498931 30.047727 7.511264
2005-05-17 08:28:15 51°9.889 2°40.394 11.9512 3.498931 30.047727 7.511264
2005-05-17 08:28:20 51°9.883 2°40.363 11.9483 3.500405 30.061147 7.646101
2005-05-17 08:28:25 51°9.878 2°40.339 11.954 3.500616 30.056812 7.71352
2005-05-17 08:28:30 51°9.871 2°40.308 11.9475 3.501037 30.059559 7.646101
2005-05-17 08:28:34 51°9.868 2°40.286 11.9419 3.50188 30.066954 7.71352
2005-05-17 08:28:40 51°9.859 2°40.257 11.9467 3.502302 30.072237 7.612392
2005-05-17 08:28:44 51°9.855 2°40.231 11.9406 3.502302 30.072237 7.612392
2005-05-17 08:28:50 51°9.846 2°40.202 11.9475 3.502407 30.073241 7.646101
2005-05-17 08:28:54 51°9.843 2°40.176 11.9371 3.502196 30.070599 7.71352
2005-05-17 08:29:00 51°9.833 2°40.145 11.9384 3.501986 30.06986 7.679811
2005-05-17 08:29:05 51°9.829 2°40.12 11.9365 3.502512 30.074879 7.612392
2005-05-17 08:29:10 51°9.822 2°40.093 11.9236 3.502196 30.073137 7.71352
2005-05-17 08:29:15 51°9.816 2°40.066 11.933 3.502196 30.073137 7.71352
2005-05-17 08:29:20 51°9.81 2°40.038 11.9327 3.502091 30.073402 7.71352
2005-05-17 08:29:24 51°9.804 2°40.018 11.9266 3.501038 30.062096 7.578683
2005-05-17 08:29:30 51°9.797 2°39.984 11.933 3.501248 30.065372 7.410136
2005-05-17 08:29:34 51°9.793 2°39.959 11.9302 3.500827 30.064528 7.477554
2005-05-17 08:29:40 51°9.785 2°39.93 11.9298 3.500195 30.061042 7.477554
2005-05-17 08:29:45 51°9.779 2°39.903 11.9406 3.500195 30.061042 7.477554
2005-05-17 08:29:50 51°9.773 2°39.875 11.9347 3.499141 30.056078 7.14046
2005-05-17 08:29:54 51°9.767 2°39.85 11.9356 3.498615 30.052326 7.207879
2005-05-17 08:30:00 51°9.761 2°39.819 11.9428 3.49735 30.040278 7.17417
2005-05-17 08:30:05 51°9.755 2°39.789 11.9413 3.497034 30.035998 7.005623
2005-05-17 08:30:10 51°9.748 2°39.762 11.9421 3.496402 30.030608 7.14046
2005-05-17 08:30:15 51°9.743 2°39.734 11.9596 3.496402 30.030608 7.14046
2005-05-17 08:30:20 51°9.737 2°39.71 11.9556 3.49577 30.023951 7.039332
2005-05-17 08:30:24 51°9.731 2°39.686 11.9647 3.495138 30.016027 7.073042
2005-05-17 08:30:30 51°9.725 2°39.654 11.967 3.494717 30.011378 6.904494
2005-05-17 08:30:35 51°9.718 2°39.628 11.9703 3.493979 30.00182 7.073042
2005-05-17 08:30:40 51°9.713 2°39.6 11.9748 3.492926 29.990518 7.275298
2005-05-17 08:30:45 51°9.706 2°39.574 11.9753 3.492926 29.990518 7.275298
2005-05-17 08:30:50 51°9.7 2°39.545 11.9737 3.492399 29.981704 7.207879
2005-05-17 08:30:55 51°9.694 2°39.518 11.9697 3.491451 29.96888 7.376426
2005-05-17 08:30:59 51°9.688 2°39.494 11.9833 3.491872 29.9691 7.477554
2005-05-17 08:31:05 51°9.681 2°39.461 11.9712 3.437304 29.444538 7.477554
2005-05-17 08:31:10 51°9.676 2°39.433 11.9785 3.427191 29.344805 7.578683
2005-05-17 08:31:15 51°9.669 2°39.406 11.9748 3.427191 29.344805 7.578683
2005-05-17 08:31:20 51°9.664 2°39.378 11.9905 3.3622 28.724553 7.71352
2005-05-17 08:31:25 51°9.657 2°39.355 11.9865 3.36694 28.769413 7.612392
2005-05-17 08:31:30 51°9.651 2°39.324 11.9747 3.424452 29.316338 7.679811
2005-05-17 08:31:35 51°9.645 2°39.299 11.9749 3.364412 28.746092 7.814648
2005-05-17 08:31:40 51°9.641 2°39.271 11.9716 3.371364 28.808863 7.578683
2005-05-17 08:31:44 51°9.634 2°39.25 11.9705 3.371364 28.808863 7.578683
2005-05-17 08:31:50 51°9.628 2°39.216 11.9601 3.36694 28.765171 7.780939
2005-05-17 08:31:54 51°9.621 2°39.193 11.9698 3.416762 29.234749 7.679811
2005-05-17 08:32:00 51°9.614 2°39.163 11.9606 3.397802 29.053779 7.71352
2005-05-17 08:32:05 51°9.608 2°39.135 11.951 3.408441 29.156456 7.71352
2005-05-17 08:32:10 51°9.602 2°39.108 11.951 3.430351 29.366756 7.780939
2005-05-17 08:32:14 51°9.596 2°39.084 11.9504 3.430351 29.366756 7.780939
2005-05-17 08:32:20 51°9.59 2°39.054 11.9499 3.417289 29.245906 7.74723
2005-05-17 08:32:25 51°9.583 2°39.027 11.9402 3.39243 29.012049 7.679811
2005-05-17 08:32:30 51°9.577 2°39 11.944 3.414445 29.223239 7.679811
2005-05-17 08:32:34 51°9.571 2°38.976 11.9469 3.438989 29.458683 7.544973
2005-05-17 08:32:40 51°9.564 2°38.946 11.937 3.39085 29.006857 7.544973
2005-05-17 08:32:44 51°9.559 2°38.924 11.9749 3.39085 29.006857 7.544973
2005-05-17 08:32:50 51°9.552 2°38.892 11.9607 3.429719 29.378092 7.376426
2005-05-17 08:32:55 51°9.546 2°38.865 11.9597 3.42361 29.323174 7.309007
2005-05-17 08:33:00 51°9.54 2°38.838 11.9388 3.431405 29.400917 7.207879
2005-05-17 08:33:04 51°9.534 2°38.817 11.9437 3.420976 29.303734 7.275298
2005-05-17 08:33:10 51°9.527 2°38.781 11.928 3.436777 29.45444 7.309007
2005-05-17 08:33:15 51°9.52 2°38.754 11.9242 3.436777 29.45444 7.309007
2005-05-17 08:33:20 51°9.515 2°38.73 11.9234 3.415183 29.242561 7.410136
2005-05-17 08:33:24 51°9.51 2°38.705 11.9251 3.388428 28.984505 7.544973
2005-05-17 08:33:30 51°9.502 2°38.675 11.9261 3.435618 29.432875 7.679811
2005-05-17 08:33:34 51°9.497 2°38.65 11.9261 3.437725 29.458477 7.780939
2005-05-17 08:33:40 51°9.489 2°38.622 11.9383 3.412865 29.227965 7.780939
2005-05-17 08:33:45 51°9.485 2°38.593 11.9298 3.412865 29.227965 7.780939
2005-05-17 08:33:50 51°9.476 2°38.564 11.9291 3.401068 29.121535 7.679811
2005-05-17 08:33:54 51°9.473 2°38.541 11.9313 3.355776 28.69641 7.780939
2005-05-17 08:34:00 51°9.465 2°38.512 11.9277 3.353248 28.673678 7.679811
2005-05-17 08:34:04 51°9.46 2°38.487 11.9261 3.42972 29.399791 7.848358
2005-05-17 08:34:10 51°9.452 2°38.457 11.9259 3.358725 28.724346 7.915777
2005-05-17 08:34:14 51°9.447 2°38.433 11.9263 3.358725 28.724346 7.915777
2005-05-17 08:34:20 51°9.44 2°38.403 11.9238 3.42519 29.354272 8.016905
2005-05-17 08:34:25 51°9.434 2°38.375 11.9557 3.431721 29.416329 8.050614
2005-05-17 08:34:30 51°9.427 2°38.346 11.9257 3.425611 29.357036 8.084324
2005-05-17 08:34:35 51°9.421 2°38.321 11.9209 3.351247 28.652911 8.185452
2005-05-17 08:34:40 51°9.415 2°38.29 11.9219 3.415288 29.262074 8.28658
2005-05-17 08:34:45 51°9.41 2°38.265 11.9193 3.415288 29.262074 8.28658
2005-05-17 08:34:50 51°9.404 2°38.238 11.9149 3.399488 29.112685 8.219161
2005-05-17 08:34:54 51°9.398 2°38.214 11.9131 3.418027 29.289321 8.320289
2005-05-17 08:35:00 51°9.392 2°38.183 11.9133 3.413814 29.2456 8.387708
2005-05-17 08:35:04 51°9.385 2°38.159 11.9211 3.402859 29.142832 8.455127
2005-05-17 08:35:10 51°9.377 2°38.126 11.9135 3.441623 29.514809 8.353999
2005-05-17 08:35:14 51°9.372 2°38.104 11.9456 3.441623 29.514809 8.353999
2005-05-17 08:35:20 51°9.366 2°38.073 11.9282 3.429298 29.39951 8.421418
2005-05-17 08:35:25 51°9.36 2°38.046 11.9185 3.432564 29.433033 8.387708
2005-05-17 08:35:30 51°9.354 2°38.015 11.9226 3.432564 29.434897 8.522546
2005-05-17 08:35:35 51°9.349 2°37.986 11.9241 3.444994 29.553727 8.387708
2005-05-17 08:35:40 51°9.343 2°37.959 11.9224 3.35546 28.703712 8.455127
2005-05-17 08:35:45 51°9.337 2°37.934 11.9231 3.35546 28.703712 8.455127
2005-05-17 08:35:50 51°9.331 2°37.904 11.9187 3.429193 29.401611 8.455127
2005-05-17 08:35:55 51°9.326 2°37.879 11.924 3.41729 29.282318 8.488836
2005-05-17 08:35:59 51°9.319 2°37.854 11.9293 3.430352 29.408901 8.488836
2005-05-17 08:36:04 51°9.314 2°37.829 11.9363 3.437725 29.479618 8.623674
2005-05-17 08:36:10 51°9.306 2°37.793 11.9222 3.408758 29.204373 8.421418
2005-05-17 08:36:14 51°9.302 2°37.771 11.9197 3.408758 29.204373 8.421418
2005-05-17 08:36:20 51°9.294 2°37.741 11.929 3.428772 29.396365 8.421418
2005-05-17 08:36:24 51°9.29 2°37.716 11.9401 3.413182 29.248857 8.320289
2005-05-17 08:36:30 51°9.282 2°37.687 11.9343 3.450893 29.607348 8.252871
2005-05-17 08:36:35 51°9.277 2°37.659 11.9304 3.422978 29.339448 8.185452
2005-05-17 08:36:40 51°9.269 2°37.632 11.9324 3.448365 29.576428 8.151742
2005-05-17 08:36:45 51°9.263 2°37.601 11.9369 3.448365 29.576428 8.151742
2005-05-17 08:36:50 51°9.257 2°37.574 11.9301 3.414656 29.258541 8.219161
2005-05-17 08:36:55 51°9.251 2°37.549 11.9506 3.430457 29.40866 8.016905
2005-05-17 08:37:00 51°9.246 2°37.521 11.9485 3.424137 29.344884 7.983195
2005-05-17 08:37:05 51°9.238 2°37.491 11.9471 3.426138 29.363279 7.949486
2005-05-17 08:37:10 51°9.234 2°37.464 11.9501 3.500195 30.066753 7.882067
2005-05-17 08:37:14 51°9.228 2°37.444 11.951 3.500195 30.066753 7.882067
2005-05-17 08:37:20 51°9.224 2°37.415 11.9495 3.50188 30.082819 7.915777
2005-05-17 08:37:24 51°9.218 2°37.394 11.9432 3.502934 30.092226 7.71352
2005-05-17 08:37:30 51°9.213 2°37.365 11.9533 3.503355 30.093702 7.71352
2005-05-17 08:37:34 51°9.208 2°37.347 11.9517 3.503566 30.091265 7.71352
2005-05-17 08:37:40 51°9.201 2°37.319 11.9513 3.503987 30.093376 7.511264
2005-05-17 08:37:44 51°9.197 2°37.303 11.9507 3.503987 30.093376 7.511264
2005-05-17 08:37:50 51°9.189 2°37.275 11.9569 3.504303 30.094483 7.612392
2005-05-17 08:37:55 51°9.185 2°37.253 11.95 3.504409 30.095487 7.814648
2005-05-17 08:38:00 51°9.179 2°37.236 11.957 3.504725 30.099134 7.612392
2005-05-17 08:38:05 51°9.176 2°37.216 11.9491 3.50483 30.099502 7.477554
2005-05-17 08:38:10 51°9.171 2°37.198 11.9524 3.50483 30.096962 7.410136
2005-05-17 08:38:14 51°9.168 2°37.181 11.9543 3.50483 30.096962 7.410136
2005-05-17 08:38:20 51°9.164 2°37.163 11.9533 3.505673 30.105628 7.544973
2005-05-17 08:38:24 51°9.162 2°37.15 11.9485 3.506305 30.112287 7.410136
2005-05-17 08:38:30 51°9.159 2°37.132 11.9572 3.506305 30.110381 7.309007
2005-05-17 08:38:35 51°9.157 2°37.118 11.9568 3.506621 30.112123 7.342717
2005-05-17 08:38:40 51°9.156 2°37.106 11.9551 3.50641 30.10948 7.342717
2005-05-17 08:38:44 51°9.155 2°37.096 11.955 3.50641 30.10948 7.342717
2005-05-17 08:38:50 51°9.155 2°37.082 11.9674 3.506621 30.111487 7.477554
2005-05-17 08:38:54 51°9.156 2°37.074 11.9494 3.506516 30.110484 7.275298
2005-05-17 08:39:00 51°9.156 2°37.065 11.9494 3.506516 30.111754 7.410136
2005-05-17 08:39:04 51°9.157 2°37.059 11.951 3.505989 30.106735 7.544973
2005-05-17 08:39:10 51°9.158 2°37.048 11.9509 3.505989 30.105464 7.410136
2005-05-17 08:39:14 51°9.159 2°37.044 11.955 3.505989 30.105464 7.410136
2005-05-17 08:39:20 51°9.16 2°37.038 11.9547 3.505884 30.105731 7.612392
2005-05-17 08:39:25 51°9.161 2°37.032 11.9579 3.505673 30.102453 7.612392
2005-05-17 08:39:30 51°9.162 2°37.029 11.9448 3.505462 30.099811 7.679811
2005-05-17 08:39:35 51°9.163 2°37.027 11.9542 3.505462 30.100445 7.578683
2005-05-17 08:39:39 51°9.164 2°37.025 11.9511 3.505041 30.093256 7.443845
2005-05-17 08:39:44 51°9.164 2°37.026 11.9517 3.505041 30.093256 7.443845
2005-05-17 08:39:49 51°9.163 2°37.026 11.9591 3.504303 30.0875 7.410136
2005-05-17 08:39:54 51°9.163 2°37.026 11.9552 3.505146 30.097434 7.275298
2005-05-17 08:40:00 51°9.162 2°37.026 11.9533 3.504725 30.091515 7.207879
2005-05-17 08:40:05 51°9.162 2°37.026 11.957 3.505251 30.097803 7.106751
2005-05-17 08:40:10 51°9.162 2°37.026 11.9495 3.505146 30.097434 7.14046
2005-05-17 08:40:14 51°9.161 2°37.026 11.9536 3.505146 30.097434 7.14046
2005-05-17 08:40:20 51°9.161 2°37.026 11.9512 3.505462 30.10235 7.005623
2005-05-17 08:40:25 51°9.161 2°37.026 11.9523 3.505568 30.102719 6.938204
2005-05-17 08:40:30 51°9.16 2°37.026 11.9608 3.505251 30.098438 6.870785
2005-05-17 08:40:36 51°9.16 2°37.026 11.9556 3.505778 30.104092 6.803366
2005-05-17 08:40:40 51°9.159 2°37.026 11.9578 3.505989 30.106735 6.803366
2005-05-17 08:40:45 51°9.159 2°37.026 11.9554 3.505989 30.106735 6.803366
2005-05-17 08:40:50 51°9.158 2°37.026 11.9503 3.5062 30.110013 6.904494
2005-05-17 08:40:54 51°9.158 2°37.026 11.9533 3.505989 30.109911 6.904494
2005-05-17 08:41:00 51°9.157 2°37.026 11.9481 3.5062 30.110648 7.073042
2005-05-17 08:41:04 51°9.156 2°37.026 11.9489 3.505778 30.104092 7.039332
2005-05-17 08:41:10 51°9.155 2°37.025 11.9507 3.505778 30.103457 7.039332
2005-05-17 08:41:15 51°9.155 2°37.025 11.9473 3.505778 30.103457 7.039332
2005-05-17 08:41:20 51°9.155 2°37.025 11.9475 3.505989 30.104829 7.17417
2005-05-17 08:41:24 51°9.154 2°37.024 11.9481 3.5062 30.108742 7.309007
2005-05-17 08:41:30 51°9.154 2°37.024 11.9441 3.506305 30.111017 7.207879
2005-05-17 08:41:34 51°9.154 2°37.024 11.9434 3.5062 30.111283 7.241589
2005-05-17 08:41:40 51°9.153 2°37.025 11.9507 3.505778 30.107267 7.309007
2005-05-17 08:41:44 51°9.153 2°37.024 11.9468 3.505778 30.107267 7.309007
2005-05-17 08:41:50 51°9.152 2°37.024 11.9453 3.505673 30.106264 7.376426
2005-05-17 08:41:54 51°9.151 2°37.024 11.9402 3.505568 30.1078 7.443845
2005-05-17 08:42:00 51°9.151 2°37.023 11.9459 3.505357 30.105792 7.410136
2005-05-17 08:42:05 51°9.15 2°37.023 11.9543 3.505252 30.104788 7.443845
2005-05-17 08:42:10 51°9.149 2°37.023 11.952 3.505252 30.103518 7.578683
2005-05-17 08:42:14 51°9.149 2°37.023 11.9543 3.505252 30.103518 7.578683
2005-05-17 08:42:20 51°9.148 2°37.022 11.954 3.50483 30.101408 7.578683
2005-05-17 08:42:23 51°9.148 2°37.023 11.9476 3.504936 30.102412 7.612392
2005-05-17 08:42:30 51°9.147 2°37.023 11.9519 3.505146 30.10569 7.612392
2005-05-17 08:42:34 51°9.146 2°37.022 11.9517 3.504936 30.104317 7.646101
2005-05-17 08:42:40 51°9.146 2°37.022 11.9538 3.505041 30.102781 7.544973
2005-05-17 08:42:45 51°9.146 2°37.022 11.9515 3.505041 30.102781 7.544973
2005-05-17 08:42:50 51°9.145 2°37.022 11.9502 3.504725 30.097228 7.780939
2005-05-17 08:42:54 51°9.144 2°37.022 11.9445 3.50483 30.097597 7.814648
2005-05-17 08:43:00 51°9.143 2°37.02 11.9575 3.504619 30.094955 7.71352
2005-05-17 08:43:05 51°9.143 2°37.021 11.9476 3.504725 30.095959 7.71352
2005-05-17 08:43:10 51°9.142 2°37.02 11.9464 3.504409 30.094217 7.882067
2005-05-17 08:43:15 51°9.142 2°37.02 11.9381 3.504409 30.094217 7.882067
2005-05-17 08:43:20 51°9.142 2°37.019 11.9373 3.504619 30.096225 7.949486
2005-05-17 08:43:24 51°9.141 2°37.019 11.9401 3.504725 30.096593 7.882067
2005-05-17 08:43:30 51°9.14 2°37.019 11.9413 3.504619 30.097495 7.949486
2005-05-17 08:43:34 51°9.14 2°37.018 11.9435 3.504514 30.095221 7.814648
2005-05-17 08:43:39 51°9.139 2°37.018 11.9448 3.504514 30.095221 7.915777
2005-05-17 08:43:44 51°9.139 2°37.017 11.9416 3.504514 30.095221 7.915777
2005-05-17 08:43:50 51°9.138 2°37.017 11.9384 3.504514 30.097126 7.983195
2005-05-17 08:43:55 51°9.138 2°37.017 11.9393 3.504198 30.096019 7.983195
2005-05-17 08:44:00 51°9.138 2°37.016 11.9401 3.504514 30.100301 7.882067
2005-05-17 08:44:04 51°9.138 2°37.016 11.9366 3.504514 30.102207 7.983195
2005-05-17 08:44:10 51°9.137 2°37.015 11.9435 3.504198 30.098559 7.915777
2005-05-17 08:44:14 51°9.137 2°37.014 11.9347 3.504198 30.098559 7.915777
2005-05-17 08:44:20 51°9.136 2°37.014 11.9396 3.503145 30.087884 7.814648
2005-05-17 08:44:24 51°9.136 2°37.014 11.9409 3.503145 30.088519 8.016905
2005-05-17 08:44:30 51°9.135 2°37.012 11.9449 3.503461 30.092801 8.016905
2005-05-17 08:44:35 51°9.134 2°37.012 11.9432 3.504093 30.099461 7.983195
2005-05-17 08:44:40 51°9.135 2°37.011 11.9454 3.503145 30.091059 7.983195
2005-05-17 08:44:44 51°9.133 2°37.011 11.9444 3.503145 30.091059 7.983195
2005-05-17 08:44:50 51°9.133 2°37.01 11.9398 3.503566 30.095075 8.050614
2005-05-17 08:44:54 51°9.133 2°37.01 11.9461 3.501775 30.078006 7.949486
2005-05-17 08:45:00 51°9.132 2°37.009 11.9431 3.502407 30.083395 7.882067
2005-05-17 08:45:05 51°9.132 2°37.009 11.9418 3.502407 30.082126 7.983195
2005-05-17 08:45:10 51°9.131 2°37.008 11.9446 3.503566 30.0919 7.848358
2005-05-17 08:45:15 51°9.131 2°37.008 11.9409 3.503566 30.0919 7.848358
2005-05-17 08:45:20 51°9.13 2°37.007 11.9457 3.503461 30.090896 7.949486
2005-05-17 08:45:25 51°9.13 2°37.006 11.9523 3.502723 30.084503 8.118033
2005-05-17 08:45:30 51°9.129 2°37.006 11.9454 3.50325 30.088253 8.050614
2005-05-17 08:45:34 51°9.129 2°37.005 11.9486 3.503355 30.089892 8.084324
2005-05-17 08:45:40 51°9.128 2°37.005 11.9463 3.503039 30.086245 7.983195
2005-05-17 08:45:44 51°9.129 2°37.004 11.9483 3.503039 30.086245 7.983195
2005-05-17 08:45:50 51°9.128 2°37.003 11.9434 3.503039 30.086245 7.949486
2005-05-17 08:45:54 51°9.128 2°37.003 11.947 3.503145 30.087249 7.983195
2005-05-17 08:46:00 51°9.127 2°37.002 11.9483 3.50325 30.086348 8.084324
2005-05-17 08:46:04 51°9.127 2°37.001 11.9448 3.502512 30.081225 8.084324
2005-05-17 08:46:10 51°9.125 2°37.001 11.9433 3.503355 30.088622 7.983195
2005-05-17 08:46:14 51°9.126 2°37 11.9456 3.503355 30.088622 7.983195
2005-05-17 08:46:20 51°9.125 2°36.999 11.9447 3.503355 30.088622 8.016905
2005-05-17 08:46:25 51°9.125 2°36.999 11.9409 3.503145 30.085344 7.949486
2005-05-17 08:46:30 51°9.124 2°36.998 11.9482 3.503461 30.089626 7.949486
2005-05-17 08:46:35 51°9.124 2°36.997 11.9513 3.503566 30.088725 8.016905
2005-05-17 08:46:40 51°9.123 2°36.996 11.9457 3.503355 30.087352 8.084324
2005-05-17 08:46:45 51°9.123 2°36.996 11.9454 3.503355 30.087352 8.084324
2005-05-17 08:46:50 51°9.122 2°36.995 11.9423 3.503145 30.085979 8.016905
2005-05-17 08:46:54 51°9.122 2°36.995 11.9444 3.503039 30.08561 8.118033
2005-05-17 08:47:00 51°9.122 2°36.994 11.9427 3.503461 30.089626 7.882067
2005-05-17 08:47:05 51°9.121 2°36.993 11.9496 3.50325 30.088253 8.118033
2005-05-17 08:47:10 51°9.121 2°36.993 11.943 3.503145 30.085344 7.882067
2005-05-17 08:47:14 51°9.121 2°36.992 11.9452 3.503145 30.085344 7.882067
2005-05-17 08:47:20 51°9.12 2°36.991 11.9488 3.50325 30.085714 7.949486
2005-05-17 08:47:25 51°9.119 2°36.99 11.9469 3.503355 30.087352 8.151742
2005-05-17 08:47:30 51°9.12 2°36.99 11.9528 3.50325 30.086348 8.016905
2005-05-17 08:47:34 51°9.119 2°36.989 11.9537 3.503461 30.088991 8.050614
2005-05-17 08:47:40 51°9.119 2°36.989 11.9479 3.503355 30.087352 7.915777
2005-05-17 08:47:44 51°9.118 2°36.988 11.9497 3.503355 30.087352 7.915777
2005-05-17 08:47:50 51°9.118 2°36.987 11.9541 3.503355 30.087987 7.915777
2005-05-17 08:47:55 51°9.117 2°36.987 11.9535 3.503566 30.089995 8.084324
2005-05-17 08:48:00 51°9.117 2°36.987 11.953 3.503461 30.087721 8.118033
2005-05-17 08:48:04 51°9.116 2°36.986 11.9528 3.503355 30.085448 8.084324
2005-05-17 08:48:10 51°9.116 2°36.984 11.9556 3.503355 30.084178 8.016905
2005-05-17 08:48:14 51°9.116 2°36.984 11.9502 3.503355 30.084178 8.016905
2005-05-17 08:48:20 51°9.115 2°36.983 11.9586 3.503461 30.085817 8.151742
2005-05-17 08:48:24 51°9.115 2°36.983 11.9467 3.503461 30.085182 8.252871
2005-05-17 08:48:30 51°9.114 2°36.982 11.9543 3.50325 30.081271 8.185452
2005-05-17 08:48:34 51°9.114 2°36.982 11.947 3.503355 30.082274 8.084324
2005-05-17 08:48:40 51°9.114 2°36.981 11.9455 3.503355 30.081005 8.016905
2005-05-17 08:48:44 51°9.114 2°36.981 11.9406 3.503355 30.081005 8.016905
2005-05-17 08:48:50 51°9.113 2°36.98 11.9453 3.503461 30.081374 8.016905
2005-05-17 08:48:55 51°9.113 2°36.979 11.9432 3.503671 30.084651 8.050614
2005-05-17 08:49:00 51°9.112 2°36.979 11.9466 3.503144 30.080267 8.185452
2005-05-17 08:49:04 51°9.113 2°36.978 11.9422 3.502723 30.076886 8.185452
2005-05-17 08:49:10 51°9.112 2°36.977 11.9463 3.503145 30.082805 8.219161
2005-05-17 08:49:14 51°9.112 2°36.976 11.95 3.503145 30.082805 8.219161
2005-05-17 08:49:20 51°9.112 2°36.974 11.9484 3.502407 30.077048 8.016905
2005-05-17 08:49:25 51°9.112 2°36.973 11.9525 3.502196 30.075675 8.050614
2005-05-17 08:49:30 51°9.112 2°36.971 11.9533 3.502091 30.07594 8.28658
2005-05-17 08:49:35 51°9.112 2°36.967 11.9501 3.502091 30.07594 8.185452
2005-05-17 08:49:40 51°9.113 2°36.965 11.9485 3.502196 30.078213 8.28658
2005-05-17 08:49:45 51°9.114 2°36.962 11.9521 3.502196 30.078213 8.28658
2005-05-17 08:49:50 51°9.115 2°36.957 11.9492 3.501986 30.076205 8.050614
2005-05-17 08:49:54 51°9.116 2°36.954 11.9483 3.50188 30.073932 8.252871
2005-05-17 08:50:00 51°9.117 2°36.95 11.9498 3.50167 30.070021 8.28658
2005-05-17 08:50:04 51°9.119 2°36.947 11.9515 3.501775 30.069122 8.252871
2005-05-17 08:50:10 51°9.121 2°36.943 11.955 3.501986 30.071129 8.151742
2005-05-17 08:50:14 51°9.122 2°36.939 11.9485 3.501986 30.071129 8.151742
2005-05-17 08:50:20 51°9.125 2°36.935 11.9581 3.502196 30.073771 8.219161
2005-05-17 08:50:25 51°9.127 2°36.93 11.9543 3.502196 30.073771 8.151742
2005-05-17 08:50:30 51°9.13 2°36.926 11.954 3.50188 30.07076 8.185452
2005-05-17 08:50:35 51°9.132 2°36.923 11.9535 3.501986 30.071129 8.252871
2005-05-17 08:50:40 51°9.135 2°36.919 11.9596 3.50188 30.070125 8.353999
2005-05-17 08:50:45 51°9.138 2°36.916 11.9463 3.50188 30.070125 8.353999
2005-05-17 08:50:50 51°9.141 2°36.914 11.9442 3.50188 30.069491 8.252871
2005-05-17 08:50:55 51°9.144 2°36.911 11.9435 3.501564 30.065846 8.522546
2005-05-17 08:51:00 51°9.147 2°36.909 11.9491 3.50167 30.065581 8.252871
2005-05-17 08:51:05 51°9.15 2°36.908 11.9386 3.501459 30.064208 8.219161
2005-05-17 08:51:10 51°9.154 2°36.906 11.9482 3.501354 30.061936 8.185452
2005-05-17 08:51:14 51°9.157 2°36.905 11.9521 3.501354 30.061936 8.185452
2005-05-17 08:51:20 51°9.161 2°36.905 11.9456 3.501248 30.061566 8.219161
2005-05-17 08:51:24 51°9.163 2°36.905 11.9488 3.501038 30.062096 8.387708
2005-05-17 08:51:30 51°9.168 2°36.906 11.9462 3.500932 30.064263 8.185452
2005-05-17 08:51:34 51°9.171 2°36.906 11.9392 3.500722 30.06289 8.185452
2005-05-17 08:51:40 51°9.175 2°36.908 11.9343 3.500932 30.066166 8.185452
2005-05-17 08:51:45 51°9.178 2°36.91 11.936 3.500932 30.066166 8.185452
2005-05-17 08:51:50 51°9.181 2°36.913 11.9355 3.500827 30.063894 8.219161
2005-05-17 08:51:54 51°9.184 2°36.915 11.9424 3.500932 30.064263 8.185452
2005-05-17 08:52:00 51°9.188 2°36.918 11.9477 3.501143 30.066905 8.252871